<?xml version="1.0" encoding="UTF-8" standalone="no" ?>
<gpx xmlns="http://www.topografix.com/GPX/1/1" xmlns:xsi="http://www.w3.org/2001/XMLSchema-instance" xsi:schemaLocation="http://www.topografix.com/GPX/1/1 http://www.topografix.com/GPX/1/1/gpx.xsd" version="1.1" creator="VisuGPX - https://www.visugpx.com">
  <metadata>
    <name>le long de l adour</name>
    <desc><![CDATA[11:14:46

comment ...]]></desc>
  </metadata>
  <trk>
    <name><![CDATA[23 févr. 2020]]></name>
    <cmt><![CDATA[11:14:46]]></cmt>
    <desc><![CDATA[comment ...]]></desc>
    <trkseg>
      <trkpt lat="43.58213" lon="-0.00031">
        <ele>158</ele>
        <time>2020-02-23T10:14:46Z</time>
      </trkpt>
      <trkpt lat="43.58214" lon="-0.00031">
        <ele>157</ele>
        <time>2020-02-23T10:14:48Z</time>
      </trkpt>
      <trkpt lat="43.58222" lon="-0.00042">
        <ele>152</ele>
        <time>2020-02-23T10:16:44Z</time>
      </trkpt>
      <trkpt lat="43.58221" lon="-0.00049">
        <ele>151</ele>
        <time>2020-02-23T10:17:54Z</time>
      </trkpt>
      <trkpt lat="43.58217" lon="-0.00056">
        <ele>150</ele>
        <time>2020-02-23T10:17:57Z</time>
      </trkpt>
      <trkpt lat="43.58214" lon="-0.0006">
        <ele>150</ele>
        <time>2020-02-23T10:17:59Z</time>
      </trkpt>
      <trkpt lat="43.58213" lon="-0.00066">
        <ele>149</ele>
        <time>2020-02-23T10:18:03Z</time>
      </trkpt>
      <trkpt lat="43.58209" lon="-0.00067">
        <ele>149</ele>
        <time>2020-02-23T10:18:19Z</time>
      </trkpt>
      <trkpt lat="43.58209" lon="-0.00071">
        <ele>148</ele>
        <time>2020-02-23T10:18:22Z</time>
      </trkpt>
      <trkpt lat="43.58205" lon="-0.00072">
        <ele>148</ele>
        <time>2020-02-23T10:18:40Z</time>
      </trkpt>
      <trkpt lat="43.58202" lon="-0.0007">
        <ele>148</ele>
        <time>2020-02-23T10:18:44Z</time>
      </trkpt>
      <trkpt lat="43.58197" lon="-0.00066">
        <ele>148</ele>
        <time>2020-02-23T10:18:48Z</time>
      </trkpt>
      <trkpt lat="43.58193" lon="-0.00064">
        <ele>147</ele>
        <time>2020-02-23T10:18:51Z</time>
      </trkpt>
      <trkpt lat="43.58171" lon="-0.00042">
        <ele>147</ele>
        <time>2020-02-23T10:19:12Z</time>
      </trkpt>
      <trkpt lat="43.58167" lon="-0.0004">
        <ele>147</ele>
        <time>2020-02-23T10:19:15Z</time>
      </trkpt>
      <trkpt lat="43.58163" lon="-0.00038">
        <ele>147</ele>
        <time>2020-02-23T10:19:19Z</time>
      </trkpt>
      <trkpt lat="43.58159" lon="-0.00036">
        <ele>147</ele>
        <time>2020-02-23T10:19:24Z</time>
      </trkpt>
      <trkpt lat="43.5814" lon="-0.00028">
        <ele>146</ele>
        <time>2020-02-23T10:19:37Z</time>
      </trkpt>
      <trkpt lat="43.58135" lon="-0.00027">
        <ele>146</ele>
        <time>2020-02-23T10:19:43Z</time>
      </trkpt>
      <trkpt lat="43.58122" lon="-0.00022">
        <ele>146</ele>
        <time>2020-02-23T10:19:53Z</time>
      </trkpt>
      <trkpt lat="43.58117" lon="-0.00021">
        <ele>146</ele>
        <time>2020-02-23T10:19:58Z</time>
      </trkpt>
      <trkpt lat="43.58111" lon="-0.0002">
        <ele>146</ele>
        <time>2020-02-23T10:20:10Z</time>
      </trkpt>
      <trkpt lat="43.58109" lon="-0.00015">
        <ele>146</ele>
        <time>2020-02-23T10:20:13Z</time>
      </trkpt>
      <trkpt lat="43.58103" lon="1.0E-5">
        <ele>145</ele>
        <time>2020-02-23T10:20:24Z</time>
      </trkpt>
      <trkpt lat="43.58092" lon="7.0E-5">
        <ele>145</ele>
        <time>2020-02-23T10:20:35Z</time>
      </trkpt>
      <trkpt lat="43.58088" lon="9.0E-5">
        <ele>145</ele>
        <time>2020-02-23T10:20:39Z</time>
      </trkpt>
      <trkpt lat="43.5807" lon="0.00011">
        <ele>145</ele>
        <time>2020-02-23T10:20:55Z</time>
      </trkpt>
      <trkpt lat="43.58064" lon="0.00015">
        <ele>144</ele>
        <time>2020-02-23T10:21:05Z</time>
      </trkpt>
      <trkpt lat="43.58058" lon="0.00024">
        <ele>144</ele>
        <time>2020-02-23T10:21:13Z</time>
      </trkpt>
      <trkpt lat="43.58056" lon="0.00027">
        <ele>144</ele>
        <time>2020-02-23T10:21:17Z</time>
      </trkpt>
      <trkpt lat="43.58052" lon="0.00034">
        <ele>144</ele>
        <time>2020-02-23T10:21:24Z</time>
      </trkpt>
      <trkpt lat="43.5805" lon="0.00038">
        <ele>144</ele>
        <time>2020-02-23T10:21:35Z</time>
      </trkpt>
      <trkpt lat="43.58047" lon="0.00035">
        <ele>144</ele>
        <time>2020-02-23T10:22:40Z</time>
      </trkpt>
      <trkpt lat="43.58045" lon="0.00025">
        <ele>143</ele>
        <time>2020-02-23T10:22:49Z</time>
      </trkpt>
      <trkpt lat="43.58042" lon="0.00023">
        <ele>143</ele>
        <time>2020-02-23T10:22:53Z</time>
      </trkpt>
      <trkpt lat="43.58026" lon="0.00027">
        <ele>143</ele>
        <time>2020-02-23T10:23:16Z</time>
      </trkpt>
      <trkpt lat="43.58016" lon="0.00033">
        <ele>142</ele>
        <time>2020-02-23T10:23:32Z</time>
      </trkpt>
      <trkpt lat="43.58007" lon="0.00044">
        <ele>142</ele>
        <time>2020-02-23T10:23:40Z</time>
      </trkpt>
      <trkpt lat="43.58" lon="0.00047">
        <ele>142</ele>
        <time>2020-02-23T10:23:46Z</time>
      </trkpt>
      <trkpt lat="43.57988" lon="0.00053">
        <ele>142</ele>
        <time>2020-02-23T10:23:59Z</time>
      </trkpt>
      <trkpt lat="43.5797" lon="0.00064">
        <ele>142</ele>
        <time>2020-02-23T10:24:15Z</time>
      </trkpt>
      <trkpt lat="43.57959" lon="0.00068">
        <ele>142</ele>
        <time>2020-02-23T10:24:26Z</time>
      </trkpt>
      <trkpt lat="43.57948" lon="0.00075">
        <ele>142</ele>
        <time>2020-02-23T10:24:35Z</time>
      </trkpt>
      <trkpt lat="43.57938" lon="0.00086">
        <ele>142</ele>
        <time>2020-02-23T10:24:52Z</time>
      </trkpt>
      <trkpt lat="43.57931" lon="0.00089">
        <ele>142</ele>
        <time>2020-02-23T10:24:58Z</time>
      </trkpt>
      <trkpt lat="43.57926" lon="0.0009">
        <ele>142</ele>
        <time>2020-02-23T10:25:02Z</time>
      </trkpt>
      <trkpt lat="43.57909" lon="0.00093">
        <ele>142</ele>
        <time>2020-02-23T10:25:24Z</time>
      </trkpt>
      <trkpt lat="43.57903" lon="0.00097">
        <ele>142</ele>
        <time>2020-02-23T10:25:28Z</time>
      </trkpt>
      <trkpt lat="43.57894" lon="0.00098">
        <ele>142</ele>
        <time>2020-02-23T10:25:52Z</time>
      </trkpt>
      <trkpt lat="43.57884" lon="0.00089">
        <ele>142</ele>
        <time>2020-02-23T10:26:04Z</time>
      </trkpt>
      <trkpt lat="43.57879" lon="0.00087">
        <ele>142</ele>
        <time>2020-02-23T10:26:09Z</time>
      </trkpt>
      <trkpt lat="43.57846" lon="0.00086">
        <ele>142</ele>
        <time>2020-02-23T10:26:41Z</time>
      </trkpt>
      <trkpt lat="43.57835" lon="0.00082">
        <ele>142</ele>
        <time>2020-02-23T10:26:49Z</time>
      </trkpt>
      <trkpt lat="43.57824" lon="0.00088">
        <ele>142</ele>
        <time>2020-02-23T10:26:59Z</time>
      </trkpt>
      <trkpt lat="43.57813" lon="0.00083">
        <ele>142</ele>
        <time>2020-02-23T10:27:08Z</time>
      </trkpt>
      <trkpt lat="43.57808" lon="0.00078">
        <ele>142</ele>
        <time>2020-02-23T10:27:13Z</time>
      </trkpt>
      <trkpt lat="43.57804" lon="0.00072">
        <ele>142</ele>
        <time>2020-02-23T10:27:18Z</time>
      </trkpt>
      <trkpt lat="43.578" lon="0.00061">
        <ele>142</ele>
        <time>2020-02-23T10:27:25Z</time>
      </trkpt>
      <trkpt lat="43.57799" lon="0.00062">
        <ele>142</ele>
        <time>2020-02-23T10:29:15Z</time>
      </trkpt>
      <trkpt lat="43.57796" lon="0.00064">
        <ele>142</ele>
        <time>2020-02-23T10:29:27Z</time>
      </trkpt>
      <trkpt lat="43.57792" lon="0.00065">
        <ele>142</ele>
        <time>2020-02-23T10:29:38Z</time>
      </trkpt>
      <trkpt lat="43.57788" lon="0.00063">
        <ele>142</ele>
        <time>2020-02-23T10:29:44Z</time>
      </trkpt>
      <trkpt lat="43.57781" lon="0.00065">
        <ele>142</ele>
        <time>2020-02-23T10:29:48Z</time>
      </trkpt>
      <trkpt lat="43.57775" lon="0.00068">
        <ele>143</ele>
        <time>2020-02-23T10:29:52Z</time>
      </trkpt>
      <trkpt lat="43.57757" lon="0.0007">
        <ele>143</ele>
        <time>2020-02-23T10:30:06Z</time>
      </trkpt>
      <trkpt lat="43.57752" lon="0.00064">
        <ele>143</ele>
        <time>2020-02-23T10:30:09Z</time>
      </trkpt>
      <trkpt lat="43.57734" lon="0.0006">
        <ele>143</ele>
        <time>2020-02-23T10:30:22Z</time>
      </trkpt>
      <trkpt lat="43.57699" lon="0.00058">
        <ele>143</ele>
        <time>2020-02-23T10:30:54Z</time>
      </trkpt>
      <trkpt lat="43.57693" lon="0.00057">
        <ele>143</ele>
        <time>2020-02-23T10:30:59Z</time>
      </trkpt>
      <trkpt lat="43.57677" lon="0.00047">
        <ele>143</ele>
        <time>2020-02-23T10:31:16Z</time>
      </trkpt>
      <trkpt lat="43.57671" lon="0.00044">
        <ele>143</ele>
        <time>2020-02-23T10:31:26Z</time>
      </trkpt>
      <trkpt lat="43.57668" lon="0.00044">
        <ele>143</ele>
        <time>2020-02-23T10:32:05Z</time>
      </trkpt>
      <trkpt lat="43.57651" lon="0.00045">
        <ele>143</ele>
        <time>2020-02-23T10:32:22Z</time>
      </trkpt>
      <trkpt lat="43.57645" lon="0.00044">
        <ele>143</ele>
        <time>2020-02-23T10:32:27Z</time>
      </trkpt>
      <trkpt lat="43.57639" lon="0.00047">
        <ele>143</ele>
        <time>2020-02-23T10:32:33Z</time>
      </trkpt>
      <trkpt lat="43.57608" lon="0.00045">
        <ele>143</ele>
        <time>2020-02-23T10:33:05Z</time>
      </trkpt>
      <trkpt lat="43.57594" lon="0.00044">
        <ele>143</ele>
        <time>2020-02-23T10:33:18Z</time>
      </trkpt>
      <trkpt lat="43.57578" lon="0.00038">
        <ele>143</ele>
        <time>2020-02-23T10:33:28Z</time>
      </trkpt>
      <trkpt lat="43.57572" lon="0.0004">
        <ele>143</ele>
        <time>2020-02-23T10:33:35Z</time>
      </trkpt>
      <trkpt lat="43.57566" lon="0.00039">
        <ele>143</ele>
        <time>2020-02-23T10:33:39Z</time>
      </trkpt>
      <trkpt lat="43.57561" lon="0.00041">
        <ele>143</ele>
        <time>2020-02-23T10:33:44Z</time>
      </trkpt>
      <trkpt lat="43.57549" lon="0.00034">
        <ele>143</ele>
        <time>2020-02-23T10:34:02Z</time>
      </trkpt>
      <trkpt lat="43.57544" lon="0.00033">
        <ele>143</ele>
        <time>2020-02-23T10:34:08Z</time>
      </trkpt>
      <trkpt lat="43.57536" lon="0.00029">
        <ele>143</ele>
        <time>2020-02-23T10:34:14Z</time>
      </trkpt>
      <trkpt lat="43.57528" lon="0.00029">
        <ele>143</ele>
        <time>2020-02-23T10:34:18Z</time>
      </trkpt>
      <trkpt lat="43.5752" lon="0.00027">
        <ele>143</ele>
        <time>2020-02-23T10:34:26Z</time>
      </trkpt>
      <trkpt lat="43.57514" lon="0.00022">
        <ele>143</ele>
        <time>2020-02-23T10:34:30Z</time>
      </trkpt>
      <trkpt lat="43.57506" lon="0.00021">
        <ele>143</ele>
        <time>2020-02-23T10:34:39Z</time>
      </trkpt>
      <trkpt lat="43.57486" lon="0.00023">
        <ele>143</ele>
        <time>2020-02-23T10:34:58Z</time>
      </trkpt>
      <trkpt lat="43.57473" lon="0.00028">
        <ele>143</ele>
        <time>2020-02-23T10:35:11Z</time>
      </trkpt>
      <trkpt lat="43.5746" lon="0.00034">
        <ele>143</ele>
        <time>2020-02-23T10:35:23Z</time>
      </trkpt>
      <trkpt lat="43.57456" lon="0.00038">
        <ele>143</ele>
        <time>2020-02-23T10:35:27Z</time>
      </trkpt>
      <trkpt lat="43.57431" lon="0.0004">
        <ele>143</ele>
        <time>2020-02-23T10:35:51Z</time>
      </trkpt>
      <trkpt lat="43.57424" lon="0.00044">
        <ele>143</ele>
        <time>2020-02-23T10:35:56Z</time>
      </trkpt>
      <trkpt lat="43.5742" lon="0.0005">
        <ele>142</ele>
        <time>2020-02-23T10:36:01Z</time>
      </trkpt>
      <trkpt lat="43.57413" lon="0.00053">
        <ele>142</ele>
        <time>2020-02-23T10:36:11Z</time>
      </trkpt>
      <trkpt lat="43.57408" lon="0.00058">
        <ele>142</ele>
        <time>2020-02-23T10:36:14Z</time>
      </trkpt>
      <trkpt lat="43.57399" lon="0.00066">
        <ele>142</ele>
        <time>2020-02-23T10:36:22Z</time>
      </trkpt>
      <trkpt lat="43.57393" lon="0.00072">
        <ele>142</ele>
        <time>2020-02-23T10:36:30Z</time>
      </trkpt>
      <trkpt lat="43.57384" lon="0.00091">
        <ele>142</ele>
        <time>2020-02-23T10:36:48Z</time>
      </trkpt>
      <trkpt lat="43.57381" lon="0.00099">
        <ele>142</ele>
        <time>2020-02-23T10:36:57Z</time>
      </trkpt>
      <trkpt lat="43.57372" lon="0.00122">
        <ele>142</ele>
        <time>2020-02-23T10:37:09Z</time>
      </trkpt>
      <trkpt lat="43.57368" lon="0.00134">
        <ele>142</ele>
        <time>2020-02-23T10:37:16Z</time>
      </trkpt>
      <trkpt lat="43.57363" lon="0.00149">
        <ele>143</ele>
        <time>2020-02-23T10:37:31Z</time>
      </trkpt>
      <trkpt lat="43.57362" lon="0.00149">
        <ele>143</ele>
        <time>2020-02-23T10:38:21Z</time>
      </trkpt>
      <trkpt lat="43.57364" lon="0.00136">
        <ele>143</ele>
        <time>2020-02-23T10:38:42Z</time>
      </trkpt>
      <trkpt lat="43.57365" lon="0.00127">
        <ele>143</ele>
        <time>2020-02-23T10:38:47Z</time>
      </trkpt>
      <trkpt lat="43.57373" lon="0.00098">
        <ele>143</ele>
        <time>2020-02-23T10:39:12Z</time>
      </trkpt>
      <trkpt lat="43.57373" lon="0.00113">
        <ele>143</ele>
        <time>2020-02-23T10:39:27Z</time>
      </trkpt>
      <trkpt lat="43.57366" lon="0.00135">
        <ele>143</ele>
        <time>2020-02-23T10:39:41Z</time>
      </trkpt>
      <trkpt lat="43.57358" lon="0.00159">
        <ele>143</ele>
        <time>2020-02-23T10:39:55Z</time>
      </trkpt>
      <trkpt lat="43.57355" lon="0.00176">
        <ele>143</ele>
        <time>2020-02-23T10:40:11Z</time>
      </trkpt>
      <trkpt lat="43.57353" lon="0.0019">
        <ele>143</ele>
        <time>2020-02-23T10:40:17Z</time>
      </trkpt>
      <trkpt lat="43.57356" lon="0.00212">
        <ele>143</ele>
        <time>2020-02-23T10:40:25Z</time>
      </trkpt>
      <trkpt lat="43.5736" lon="0.00246">
        <ele>143</ele>
        <time>2020-02-23T10:40:47Z</time>
      </trkpt>
      <trkpt lat="43.57355" lon="0.00262">
        <ele>143</ele>
        <time>2020-02-23T10:41:07Z</time>
      </trkpt>
      <trkpt lat="43.57352" lon="0.00269">
        <ele>143</ele>
        <time>2020-02-23T10:41:13Z</time>
      </trkpt>
      <trkpt lat="43.57352" lon="0.00278">
        <ele>143</ele>
        <time>2020-02-23T10:41:21Z</time>
      </trkpt>
      <trkpt lat="43.57351" lon="0.00287">
        <ele>143</ele>
        <time>2020-02-23T10:41:29Z</time>
      </trkpt>
      <trkpt lat="43.57343" lon="0.00308">
        <ele>143</ele>
        <time>2020-02-23T10:41:44Z</time>
      </trkpt>
      <trkpt lat="43.57338" lon="0.00313">
        <ele>143</ele>
        <time>2020-02-23T10:41:56Z</time>
      </trkpt>
      <trkpt lat="43.57304" lon="0.00337">
        <ele>143</ele>
        <time>2020-02-23T10:42:26Z</time>
      </trkpt>
      <trkpt lat="43.57295" lon="0.00346">
        <ele>143</ele>
        <time>2020-02-23T10:42:35Z</time>
      </trkpt>
      <trkpt lat="43.57291" lon="0.0035">
        <ele>143</ele>
        <time>2020-02-23T10:42:43Z</time>
      </trkpt>
      <trkpt lat="43.57288" lon="0.00352">
        <ele>143</ele>
        <time>2020-02-23T10:42:56Z</time>
      </trkpt>
      <trkpt lat="43.57285" lon="0.00356">
        <ele>143</ele>
        <time>2020-02-23T10:42:59Z</time>
      </trkpt>
      <trkpt lat="43.57279" lon="0.00359">
        <ele>143</ele>
        <time>2020-02-23T10:43:04Z</time>
      </trkpt>
      <trkpt lat="43.57276" lon="0.00361">
        <ele>143</ele>
        <time>2020-02-23T10:43:08Z</time>
      </trkpt>
      <trkpt lat="43.57271" lon="0.00363">
        <ele>143</ele>
        <time>2020-02-23T10:43:21Z</time>
      </trkpt>
      <trkpt lat="43.57264" lon="0.00366">
        <ele>143</ele>
        <time>2020-02-23T10:43:31Z</time>
      </trkpt>
      <trkpt lat="43.57253" lon="0.00374">
        <ele>143</ele>
        <time>2020-02-23T10:43:40Z</time>
      </trkpt>
      <trkpt lat="43.57239" lon="0.00391">
        <ele>143</ele>
        <time>2020-02-23T10:43:55Z</time>
      </trkpt>
      <trkpt lat="43.57224" lon="0.00401">
        <ele>143</ele>
        <time>2020-02-23T10:44:18Z</time>
      </trkpt>
      <trkpt lat="43.57218" lon="0.00406">
        <ele>143</ele>
        <time>2020-02-23T10:44:23Z</time>
      </trkpt>
      <trkpt lat="43.57211" lon="0.00407">
        <ele>143</ele>
        <time>2020-02-23T10:44:29Z</time>
      </trkpt>
      <trkpt lat="43.57186" lon="0.00406">
        <ele>143</ele>
        <time>2020-02-23T10:44:48Z</time>
      </trkpt>
      <trkpt lat="43.57165" lon="0.00391">
        <ele>143</ele>
        <time>2020-02-23T10:45:02Z</time>
      </trkpt>
      <trkpt lat="43.57153" lon="0.00385">
        <ele>143</ele>
        <time>2020-02-23T10:45:22Z</time>
      </trkpt>
      <trkpt lat="43.57142" lon="0.00377">
        <ele>143</ele>
        <time>2020-02-23T10:45:44Z</time>
      </trkpt>
      <trkpt lat="43.57133" lon="0.00374">
        <ele>143</ele>
        <time>2020-02-23T10:45:52Z</time>
      </trkpt>
      <trkpt lat="43.57127" lon="0.00367">
        <ele>143</ele>
        <time>2020-02-23T10:45:58Z</time>
      </trkpt>
      <trkpt lat="43.57121" lon="0.0036">
        <ele>143</ele>
        <time>2020-02-23T10:46:03Z</time>
      </trkpt>
      <trkpt lat="43.57108" lon="0.00335">
        <ele>143</ele>
        <time>2020-02-23T10:46:58Z</time>
      </trkpt>
      <trkpt lat="43.57106" lon="0.00327">
        <ele>142</ele>
        <time>2020-02-23T10:47:02Z</time>
      </trkpt>
      <trkpt lat="43.57102" lon="0.00318">
        <ele>142</ele>
        <time>2020-02-23T10:47:08Z</time>
      </trkpt>
      <trkpt lat="43.57097" lon="0.00312">
        <ele>142</ele>
        <time>2020-02-23T10:47:15Z</time>
      </trkpt>
      <trkpt lat="43.57092" lon="0.00307">
        <ele>142</ele>
        <time>2020-02-23T10:47:24Z</time>
      </trkpt>
      <trkpt lat="43.57088" lon="0.00302">
        <ele>142</ele>
        <time>2020-02-23T10:47:32Z</time>
      </trkpt>
      <trkpt lat="43.57083" lon="0.00297">
        <ele>142</ele>
        <time>2020-02-23T10:47:37Z</time>
      </trkpt>
      <trkpt lat="43.57079" lon="0.00289">
        <ele>142</ele>
        <time>2020-02-23T10:47:44Z</time>
      </trkpt>
      <trkpt lat="43.57073" lon="0.00283">
        <ele>142</ele>
        <time>2020-02-23T10:47:52Z</time>
      </trkpt>
      <trkpt lat="43.57067" lon="0.00281">
        <ele>143</ele>
        <time>2020-02-23T10:47:57Z</time>
      </trkpt>
      <trkpt lat="43.57062" lon="0.00274">
        <ele>143</ele>
        <time>2020-02-23T10:48:06Z</time>
      </trkpt>
      <trkpt lat="43.57052" lon="0.00258">
        <ele>143</ele>
        <time>2020-02-23T10:48:16Z</time>
      </trkpt>
      <trkpt lat="43.57044" lon="0.00247">
        <ele>143</ele>
        <time>2020-02-23T10:48:19Z</time>
      </trkpt>
      <trkpt lat="43.57038" lon="0.00243">
        <ele>143</ele>
        <time>2020-02-23T10:48:22Z</time>
      </trkpt>
      <trkpt lat="43.57033" lon="0.00237">
        <ele>143</ele>
        <time>2020-02-23T10:48:26Z</time>
      </trkpt>
      <trkpt lat="43.57028" lon="0.00232">
        <ele>143</ele>
        <time>2020-02-23T10:48:31Z</time>
      </trkpt>
      <trkpt lat="43.57003" lon="0.00253">
        <ele>143</ele>
        <time>2020-02-23T10:49:03Z</time>
      </trkpt>
      <trkpt lat="43.56988" lon="0.00275">
        <ele>143</ele>
        <time>2020-02-23T10:49:32Z</time>
      </trkpt>
      <trkpt lat="43.56981" lon="0.0028">
        <ele>143</ele>
        <time>2020-02-23T10:49:43Z</time>
      </trkpt>
      <trkpt lat="43.56972" lon="0.0028">
        <ele>143</ele>
        <time>2020-02-23T10:49:49Z</time>
      </trkpt>
      <trkpt lat="43.56961" lon="0.00281">
        <ele>143</ele>
        <time>2020-02-23T10:50:06Z</time>
      </trkpt>
      <trkpt lat="43.56955" lon="0.00282">
        <ele>143</ele>
        <time>2020-02-23T10:50:17Z</time>
      </trkpt>
      <trkpt lat="43.56947" lon="0.00291">
        <ele>143</ele>
        <time>2020-02-23T10:50:24Z</time>
      </trkpt>
      <trkpt lat="43.5694" lon="0.00301">
        <ele>144</ele>
        <time>2020-02-23T10:50:37Z</time>
      </trkpt>
      <trkpt lat="43.56934" lon="0.00302">
        <ele>144</ele>
        <time>2020-02-23T10:50:43Z</time>
      </trkpt>
      <trkpt lat="43.56929" lon="0.00301">
        <ele>144</ele>
        <time>2020-02-23T10:50:46Z</time>
      </trkpt>
      <trkpt lat="43.56929" lon="0.00303">
        <ele>144</ele>
        <time>2020-02-23T10:51:45Z</time>
      </trkpt>
      <trkpt lat="43.56933" lon="0.00304">
        <ele>144</ele>
        <time>2020-02-23T10:52:04Z</time>
      </trkpt>
      <trkpt lat="43.5694" lon="0.00302">
        <ele>144</ele>
        <time>2020-02-23T10:52:11Z</time>
      </trkpt>
      <trkpt lat="43.56944" lon="0.00298">
        <ele>144</ele>
        <time>2020-02-23T10:52:17Z</time>
      </trkpt>
      <trkpt lat="43.56945" lon="0.00292">
        <ele>144</ele>
        <time>2020-02-23T10:52:20Z</time>
      </trkpt>
      <trkpt lat="43.56946" lon="0.00286">
        <ele>144</ele>
        <time>2020-02-23T10:52:24Z</time>
      </trkpt>
      <trkpt lat="43.56946" lon="0.0028">
        <ele>144</ele>
        <time>2020-02-23T10:52:28Z</time>
      </trkpt>
      <trkpt lat="43.56947" lon="0.00275">
        <ele>144</ele>
        <time>2020-02-23T10:52:32Z</time>
      </trkpt>
      <trkpt lat="43.56949" lon="0.00269">
        <ele>144</ele>
        <time>2020-02-23T10:52:36Z</time>
      </trkpt>
      <trkpt lat="43.56952" lon="0.00266">
        <ele>144</ele>
        <time>2020-02-23T10:52:41Z</time>
      </trkpt>
      <trkpt lat="43.56955" lon="0.00268">
        <ele>144</ele>
        <time>2020-02-23T10:52:46Z</time>
      </trkpt>
      <trkpt lat="43.56961" lon="0.0027">
        <ele>144</ele>
        <time>2020-02-23T10:52:52Z</time>
      </trkpt>
      <trkpt lat="43.56965" lon="0.00264">
        <ele>144</ele>
        <time>2020-02-23T10:52:55Z</time>
      </trkpt>
      <trkpt lat="43.56968" lon="0.00257">
        <ele>144</ele>
        <time>2020-02-23T10:53:00Z</time>
      </trkpt>
      <trkpt lat="43.56968" lon="0.00251">
        <ele>144</ele>
        <time>2020-02-23T10:53:04Z</time>
      </trkpt>
      <trkpt lat="43.56967" lon="0.00245">
        <ele>144</ele>
        <time>2020-02-23T10:53:07Z</time>
      </trkpt>
      <trkpt lat="43.56961" lon="0.0023">
        <ele>144</ele>
        <time>2020-02-23T10:53:19Z</time>
      </trkpt>
      <trkpt lat="43.56959" lon="0.00226">
        <ele>143</ele>
        <time>2020-02-23T10:53:22Z</time>
      </trkpt>
      <trkpt lat="43.56957" lon="0.00219">
        <ele>143</ele>
        <time>2020-02-23T10:53:26Z</time>
      </trkpt>
      <trkpt lat="43.56955" lon="0.00209">
        <ele>143</ele>
        <time>2020-02-23T10:53:36Z</time>
      </trkpt>
      <trkpt lat="43.56952" lon="0.00203">
        <ele>143</ele>
        <time>2020-02-23T10:53:41Z</time>
      </trkpt>
      <trkpt lat="43.56946" lon="0.00199">
        <ele>143</ele>
        <time>2020-02-23T10:53:46Z</time>
      </trkpt>
      <trkpt lat="43.56942" lon="0.00194">
        <ele>143</ele>
        <time>2020-02-23T10:53:51Z</time>
      </trkpt>
      <trkpt lat="43.56937" lon="0.00188">
        <ele>143</ele>
        <time>2020-02-23T10:53:56Z</time>
      </trkpt>
      <trkpt lat="43.56933" lon="0.00186">
        <ele>143</ele>
        <time>2020-02-23T10:53:59Z</time>
      </trkpt>
      <trkpt lat="43.56926" lon="0.00179">
        <ele>143</ele>
        <time>2020-02-23T10:54:08Z</time>
      </trkpt>
      <trkpt lat="43.56923" lon="0.00175">
        <ele>143</ele>
        <time>2020-02-23T10:54:11Z</time>
      </trkpt>
      <trkpt lat="43.56919" lon="0.0017">
        <ele>143</ele>
        <time>2020-02-23T10:54:23Z</time>
      </trkpt>
      <trkpt lat="43.56913" lon="0.00169">
        <ele>143</ele>
        <time>2020-02-23T10:54:25Z</time>
      </trkpt>
      <trkpt lat="43.56909" lon="0.00172">
        <ele>143</ele>
        <time>2020-02-23T10:54:36Z</time>
      </trkpt>
      <trkpt lat="43.56906" lon="0.00167">
        <ele>143</ele>
        <time>2020-02-23T10:55:09Z</time>
      </trkpt>
      <trkpt lat="43.56897" lon="0.00161">
        <ele>143</ele>
        <time>2020-02-23T10:55:17Z</time>
      </trkpt>
      <trkpt lat="43.56891" lon="0.00159">
        <ele>143</ele>
        <time>2020-02-23T10:55:21Z</time>
      </trkpt>
      <trkpt lat="43.56872" lon="0.00145">
        <ele>143</ele>
        <time>2020-02-23T10:55:38Z</time>
      </trkpt>
      <trkpt lat="43.56851" lon="0.00133">
        <ele>143</ele>
        <time>2020-02-23T10:55:54Z</time>
      </trkpt>
      <trkpt lat="43.56842" lon="0.00137">
        <ele>143</ele>
        <time>2020-02-23T10:56:05Z</time>
      </trkpt>
      <trkpt lat="43.56839" lon="0.0014">
        <ele>143</ele>
        <time>2020-02-23T10:56:07Z</time>
      </trkpt>
      <trkpt lat="43.56833" lon="0.00143">
        <ele>143</ele>
        <time>2020-02-23T10:56:10Z</time>
      </trkpt>
      <trkpt lat="43.56822" lon="0.00154">
        <ele>143</ele>
        <time>2020-02-23T10:56:21Z</time>
      </trkpt>
      <trkpt lat="43.56815" lon="0.0016">
        <ele>143</ele>
        <time>2020-02-23T10:56:29Z</time>
      </trkpt>
      <trkpt lat="43.5681" lon="0.00165">
        <ele>143</ele>
        <time>2020-02-23T10:56:36Z</time>
      </trkpt>
      <trkpt lat="43.56804" lon="0.00168">
        <ele>143</ele>
        <time>2020-02-23T10:56:41Z</time>
      </trkpt>
      <trkpt lat="43.568" lon="0.00171">
        <ele>143</ele>
        <time>2020-02-23T10:56:45Z</time>
      </trkpt>
      <trkpt lat="43.56795" lon="0.00173">
        <ele>143</ele>
        <time>2020-02-23T10:56:49Z</time>
      </trkpt>
      <trkpt lat="43.56785" lon="0.00178">
        <ele>143</ele>
        <time>2020-02-23T10:56:57Z</time>
      </trkpt>
      <trkpt lat="43.56781" lon="0.00181">
        <ele>143</ele>
        <time>2020-02-23T10:57:00Z</time>
      </trkpt>
      <trkpt lat="43.56778" lon="0.00181">
        <ele>143</ele>
        <time>2020-02-23T10:57:03Z</time>
      </trkpt>
      <trkpt lat="43.56769" lon="0.00186">
        <ele>143</ele>
        <time>2020-02-23T10:57:12Z</time>
      </trkpt>
      <trkpt lat="43.56757" lon="0.00198">
        <ele>143</ele>
        <time>2020-02-23T10:57:24Z</time>
      </trkpt>
      <trkpt lat="43.56754" lon="0.00202">
        <ele>143</ele>
        <time>2020-02-23T10:57:29Z</time>
      </trkpt>
      <trkpt lat="43.56753" lon="0.00207">
        <ele>143</ele>
        <time>2020-02-23T10:57:34Z</time>
      </trkpt>
      <trkpt lat="43.5674" lon="0.00213">
        <ele>143</ele>
        <time>2020-02-23T10:57:44Z</time>
      </trkpt>
      <trkpt lat="43.56737" lon="0.00216">
        <ele>144</ele>
        <time>2020-02-23T10:57:48Z</time>
      </trkpt>
      <trkpt lat="43.56725" lon="0.00225">
        <ele>144</ele>
        <time>2020-02-23T10:58:07Z</time>
      </trkpt>
      <trkpt lat="43.56718" lon="0.00229">
        <ele>144</ele>
        <time>2020-02-23T10:58:11Z</time>
      </trkpt>
      <trkpt lat="43.56707" lon="0.00235">
        <ele>144</ele>
        <time>2020-02-23T10:58:14Z</time>
      </trkpt>
      <trkpt lat="43.56701" lon="0.00235">
        <ele>144</ele>
        <time>2020-02-23T10:58:21Z</time>
      </trkpt>
      <trkpt lat="43.56698" lon="0.00237">
        <ele>144</ele>
        <time>2020-02-23T10:58:29Z</time>
      </trkpt>
      <trkpt lat="43.56693" lon="0.00245">
        <ele>143</ele>
        <time>2020-02-23T10:58:47Z</time>
      </trkpt>
      <trkpt lat="43.56689" lon="0.00247">
        <ele>143</ele>
        <time>2020-02-23T10:58:51Z</time>
      </trkpt>
      <trkpt lat="43.56686" lon="0.00247">
        <ele>143</ele>
        <time>2020-02-23T10:58:53Z</time>
      </trkpt>
      <trkpt lat="43.56682" lon="0.00249">
        <ele>143</ele>
        <time>2020-02-23T10:58:56Z</time>
      </trkpt>
      <trkpt lat="43.56671" lon="0.00253">
        <ele>143</ele>
        <time>2020-02-23T10:59:07Z</time>
      </trkpt>
      <trkpt lat="43.56667" lon="0.00255">
        <ele>143</ele>
        <time>2020-02-23T10:59:11Z</time>
      </trkpt>
      <trkpt lat="43.56661" lon="0.00255">
        <ele>143</ele>
        <time>2020-02-23T10:59:23Z</time>
      </trkpt>
      <trkpt lat="43.56647" lon="0.00259">
        <ele>143</ele>
        <time>2020-02-23T10:59:45Z</time>
      </trkpt>
      <trkpt lat="43.56639" lon="0.00258">
        <ele>143</ele>
        <time>2020-02-23T11:00:02Z</time>
      </trkpt>
      <trkpt lat="43.56631" lon="0.00259">
        <ele>143</ele>
        <time>2020-02-23T11:00:14Z</time>
      </trkpt>
      <trkpt lat="43.5662" lon="0.00271">
        <ele>143</ele>
        <time>2020-02-23T11:00:22Z</time>
      </trkpt>
      <trkpt lat="43.56609" lon="0.00276">
        <ele>143</ele>
        <time>2020-02-23T11:00:34Z</time>
      </trkpt>
      <trkpt lat="43.56604" lon="0.00278">
        <ele>143</ele>
        <time>2020-02-23T11:00:45Z</time>
      </trkpt>
      <trkpt lat="43.56583" lon="0.00298">
        <ele>143</ele>
        <time>2020-02-23T11:01:17Z</time>
      </trkpt>
      <trkpt lat="43.56576" lon="0.00303">
        <ele>143</ele>
        <time>2020-02-23T11:01:20Z</time>
      </trkpt>
      <trkpt lat="43.56569" lon="0.00306">
        <ele>143</ele>
        <time>2020-02-23T11:01:28Z</time>
      </trkpt>
      <trkpt lat="43.56561" lon="0.00303">
        <ele>143</ele>
        <time>2020-02-23T11:01:37Z</time>
      </trkpt>
      <trkpt lat="43.56556" lon="0.00303">
        <ele>143</ele>
        <time>2020-02-23T11:01:50Z</time>
      </trkpt>
      <trkpt lat="43.56551" lon="0.003">
        <ele>142</ele>
        <time>2020-02-23T11:01:55Z</time>
      </trkpt>
      <trkpt lat="43.56545" lon="0.003">
        <ele>142</ele>
        <time>2020-02-23T11:01:59Z</time>
      </trkpt>
      <trkpt lat="43.56534" lon="0.00295">
        <ele>142</ele>
        <time>2020-02-23T11:02:13Z</time>
      </trkpt>
      <trkpt lat="43.56528" lon="0.00287">
        <ele>142</ele>
        <time>2020-02-23T11:02:16Z</time>
      </trkpt>
      <trkpt lat="43.56514" lon="0.00268">
        <ele>142</ele>
        <time>2020-02-23T11:02:35Z</time>
      </trkpt>
      <trkpt lat="43.56507" lon="0.00261">
        <ele>142</ele>
        <time>2020-02-23T11:02:39Z</time>
      </trkpt>
      <trkpt lat="43.56496" lon="0.00245">
        <ele>142</ele>
        <time>2020-02-23T11:02:48Z</time>
      </trkpt>
      <trkpt lat="43.56484" lon="0.00223">
        <ele>142</ele>
        <time>2020-02-23T11:03:00Z</time>
      </trkpt>
      <trkpt lat="43.56482" lon="0.00215">
        <ele>142</ele>
        <time>2020-02-23T11:03:14Z</time>
      </trkpt>
      <trkpt lat="43.56481" lon="0.00207">
        <ele>142</ele>
        <time>2020-02-23T11:03:22Z</time>
      </trkpt>
      <trkpt lat="43.56465" lon="0.0019">
        <ele>141</ele>
        <time>2020-02-23T11:03:40Z</time>
      </trkpt>
      <trkpt lat="43.56452" lon="0.00161">
        <ele>141</ele>
        <time>2020-02-23T11:03:58Z</time>
      </trkpt>
      <trkpt lat="43.56447" lon="0.00146">
        <ele>141</ele>
        <time>2020-02-23T11:04:16Z</time>
      </trkpt>
      <trkpt lat="43.56442" lon="0.00149">
        <ele>141</ele>
        <time>2020-02-23T11:04:31Z</time>
      </trkpt>
      <trkpt lat="43.56437" lon="0.00144">
        <ele>141</ele>
        <time>2020-02-23T11:04:37Z</time>
      </trkpt>
      <trkpt lat="43.56436" lon="0.00137">
        <ele>141</ele>
        <time>2020-02-23T11:04:44Z</time>
      </trkpt>
      <trkpt lat="43.56434" lon="0.00129">
        <ele>141</ele>
        <time>2020-02-23T11:04:50Z</time>
      </trkpt>
      <trkpt lat="43.56428" lon="0.00122">
        <ele>141</ele>
        <time>2020-02-23T11:04:58Z</time>
      </trkpt>
      <trkpt lat="43.5642" lon="0.00109">
        <ele>141</ele>
        <time>2020-02-23T11:05:33Z</time>
      </trkpt>
      <trkpt lat="43.56414" lon="0.00094">
        <ele>141</ele>
        <time>2020-02-23T11:05:41Z</time>
      </trkpt>
      <trkpt lat="43.564" lon="0.00037">
        <ele>140</ele>
        <time>2020-02-23T11:06:10Z</time>
      </trkpt>
      <trkpt lat="43.56397" lon="0.00027">
        <ele>139</ele>
        <time>2020-02-23T11:06:22Z</time>
      </trkpt>
      <trkpt lat="43.56392" lon="0.0002">
        <ele>139</ele>
        <time>2020-02-23T11:06:27Z</time>
      </trkpt>
      <trkpt lat="43.56387" lon="0.00015">
        <ele>139</ele>
        <time>2020-02-23T11:06:34Z</time>
      </trkpt>
      <trkpt lat="43.56382" lon="0.00014">
        <ele>139</ele>
        <time>2020-02-23T11:06:49Z</time>
      </trkpt>
      <trkpt lat="43.56375" lon="0.00014">
        <ele>139</ele>
        <time>2020-02-23T11:07:02Z</time>
      </trkpt>
      <trkpt lat="43.56348" lon="0.00034">
        <ele>139</ele>
        <time>2020-02-23T11:07:30Z</time>
      </trkpt>
      <trkpt lat="43.56342" lon="0.00033">
        <ele>139</ele>
        <time>2020-02-23T11:07:39Z</time>
      </trkpt>
      <trkpt lat="43.56339" lon="0.00027">
        <ele>140</ele>
        <time>2020-02-23T11:07:45Z</time>
      </trkpt>
      <trkpt lat="43.56322" lon="0.00017">
        <ele>140</ele>
        <time>2020-02-23T11:08:02Z</time>
      </trkpt>
      <trkpt lat="43.56319" lon="0.00021">
        <ele>140</ele>
        <time>2020-02-23T11:09:35Z</time>
      </trkpt>
      <trkpt lat="43.56319" lon="0.00029">
        <ele>140</ele>
        <time>2020-02-23T11:10:09Z</time>
      </trkpt>
      <trkpt lat="43.56319" lon="0.00035">
        <ele>140</ele>
        <time>2020-02-23T11:10:46Z</time>
      </trkpt>
      <trkpt lat="43.5632" lon="0.0004">
        <ele>140</ele>
        <time>2020-02-23T11:10:57Z</time>
      </trkpt>
      <trkpt lat="43.56324" lon="0.00036">
        <ele>140</ele>
        <time>2020-02-23T11:12:23Z</time>
      </trkpt>
      <trkpt lat="43.56326" lon="0.00044">
        <ele>140</ele>
        <time>2020-02-23T11:12:33Z</time>
      </trkpt>
      <trkpt lat="43.56329" lon="0.00063">
        <ele>141</ele>
        <time>2020-02-23T11:13:03Z</time>
      </trkpt>
      <trkpt lat="43.56336" lon="0.00087">
        <ele>141</ele>
        <time>2020-02-23T11:13:32Z</time>
      </trkpt>
      <trkpt lat="43.56351" lon="0.00123">
        <ele>141</ele>
        <time>2020-02-23T11:14:05Z</time>
      </trkpt>
      <trkpt lat="43.56364" lon="0.00146">
        <ele>141</ele>
        <time>2020-02-23T11:14:31Z</time>
      </trkpt>
      <trkpt lat="43.56369" lon="0.00152">
        <ele>141</ele>
        <time>2020-02-23T11:14:43Z</time>
      </trkpt>
      <trkpt lat="43.56376" lon="0.00155">
        <ele>141</ele>
        <time>2020-02-23T11:14:49Z</time>
      </trkpt>
      <trkpt lat="43.5639" lon="0.00169">
        <ele>141</ele>
        <time>2020-02-23T11:15:19Z</time>
      </trkpt>
      <trkpt lat="43.56407" lon="0.00188">
        <ele>141</ele>
        <time>2020-02-23T11:15:38Z</time>
      </trkpt>
      <trkpt lat="43.56412" lon="0.00208">
        <ele>141</ele>
        <time>2020-02-23T11:15:46Z</time>
      </trkpt>
      <trkpt lat="43.56429" lon="0.00233">
        <ele>141</ele>
        <time>2020-02-23T11:16:13Z</time>
      </trkpt>
      <trkpt lat="43.56451" lon="0.00252">
        <ele>141</ele>
        <time>2020-02-23T11:16:46Z</time>
      </trkpt>
      <trkpt lat="43.56453" lon="0.00256">
        <ele>141</ele>
        <time>2020-02-23T11:17:18Z</time>
      </trkpt>
      <trkpt lat="43.56457" lon="0.00259">
        <ele>141</ele>
        <time>2020-02-23T11:17:24Z</time>
      </trkpt>
      <trkpt lat="43.56461" lon="0.00264">
        <ele>141</ele>
        <time>2020-02-23T11:17:30Z</time>
      </trkpt>
      <trkpt lat="43.56466" lon="0.00268">
        <ele>141</ele>
        <time>2020-02-23T11:17:34Z</time>
      </trkpt>
      <trkpt lat="43.56472" lon="0.00274">
        <ele>142</ele>
        <time>2020-02-23T11:17:40Z</time>
      </trkpt>
      <trkpt lat="43.56477" lon="0.00278">
        <ele>142</ele>
        <time>2020-02-23T11:17:45Z</time>
      </trkpt>
      <trkpt lat="43.56481" lon="0.00284">
        <ele>142</ele>
        <time>2020-02-23T11:17:51Z</time>
      </trkpt>
      <trkpt lat="43.56487" lon="0.00287">
        <ele>142</ele>
        <time>2020-02-23T11:17:57Z</time>
      </trkpt>
      <trkpt lat="43.56498" lon="0.00292">
        <ele>142</ele>
        <time>2020-02-23T11:18:06Z</time>
      </trkpt>
      <trkpt lat="43.56501" lon="0.00299">
        <ele>142</ele>
        <time>2020-02-23T11:18:09Z</time>
      </trkpt>
      <trkpt lat="43.56509" lon="0.00314">
        <ele>142</ele>
        <time>2020-02-23T11:18:18Z</time>
      </trkpt>
      <trkpt lat="43.56514" lon="0.00319">
        <ele>142</ele>
        <time>2020-02-23T11:18:24Z</time>
      </trkpt>
      <trkpt lat="43.56516" lon="0.00326">
        <ele>142</ele>
        <time>2020-02-23T11:18:30Z</time>
      </trkpt>
      <trkpt lat="43.56521" lon="0.00332">
        <ele>142</ele>
        <time>2020-02-23T11:18:35Z</time>
      </trkpt>
      <trkpt lat="43.56531" lon="0.00343">
        <ele>142</ele>
        <time>2020-02-23T11:18:47Z</time>
      </trkpt>
      <trkpt lat="43.56537" lon="0.00343">
        <ele>142</ele>
        <time>2020-02-23T11:18:58Z</time>
      </trkpt>
      <trkpt lat="43.56541" lon="0.00351">
        <ele>142</ele>
        <time>2020-02-23T11:19:04Z</time>
      </trkpt>
      <trkpt lat="43.56544" lon="0.00359">
        <ele>142</ele>
        <time>2020-02-23T11:19:08Z</time>
      </trkpt>
      <trkpt lat="43.56551" lon="0.00373">
        <ele>142</ele>
        <time>2020-02-23T11:19:14Z</time>
      </trkpt>
      <trkpt lat="43.56558" lon="0.00389">
        <ele>142</ele>
        <time>2020-02-23T11:19:28Z</time>
      </trkpt>
      <trkpt lat="43.56569" lon="0.00396">
        <ele>142</ele>
        <time>2020-02-23T11:19:46Z</time>
      </trkpt>
      <trkpt lat="43.5657" lon="0.00401">
        <ele>142</ele>
        <time>2020-02-23T11:20:29Z</time>
      </trkpt>
      <trkpt lat="43.5657" lon="0.00406">
        <ele>142</ele>
        <time>2020-02-23T11:20:41Z</time>
      </trkpt>
      <trkpt lat="43.56572" lon="0.00412">
        <ele>142</ele>
        <time>2020-02-23T11:20:50Z</time>
      </trkpt>
      <trkpt lat="43.56569" lon="0.00418">
        <ele>142</ele>
        <time>2020-02-23T11:20:55Z</time>
      </trkpt>
      <trkpt lat="43.56567" lon="0.00425">
        <ele>142</ele>
        <time>2020-02-23T11:21:04Z</time>
      </trkpt>
      <trkpt lat="43.56569" lon="0.00429">
        <ele>142</ele>
        <time>2020-02-23T11:21:08Z</time>
      </trkpt>
      <trkpt lat="43.5657" lon="0.00435">
        <ele>143</ele>
        <time>2020-02-23T11:21:12Z</time>
      </trkpt>
      <trkpt lat="43.56582" lon="0.00452">
        <ele>143</ele>
        <time>2020-02-23T11:21:27Z</time>
      </trkpt>
      <trkpt lat="43.56584" lon="0.00456">
        <ele>143</ele>
        <time>2020-02-23T11:21:30Z</time>
      </trkpt>
      <trkpt lat="43.56586" lon="0.00461">
        <ele>143</ele>
        <time>2020-02-23T11:21:49Z</time>
      </trkpt>
      <trkpt lat="43.5659" lon="0.00464">
        <ele>143</ele>
        <time>2020-02-23T11:21:57Z</time>
      </trkpt>
      <trkpt lat="43.56593" lon="0.00469">
        <ele>143</ele>
        <time>2020-02-23T11:22:02Z</time>
      </trkpt>
      <trkpt lat="43.56626" lon="0.00499">
        <ele>143</ele>
        <time>2020-02-23T11:22:35Z</time>
      </trkpt>
      <trkpt lat="43.5663" lon="0.00502">
        <ele>143</ele>
        <time>2020-02-23T11:22:39Z</time>
      </trkpt>
      <trkpt lat="43.56633" lon="0.00504">
        <ele>143</ele>
        <time>2020-02-23T11:22:42Z</time>
      </trkpt>
      <trkpt lat="43.56645" lon="0.00522">
        <ele>143</ele>
        <time>2020-02-23T11:22:55Z</time>
      </trkpt>
      <trkpt lat="43.56652" lon="0.00573">
        <ele>143</ele>
        <time>2020-02-23T11:23:28Z</time>
      </trkpt>
      <trkpt lat="43.56656" lon="0.00624">
        <ele>143</ele>
        <time>2020-02-23T11:23:59Z</time>
      </trkpt>
      <trkpt lat="43.56656" lon="0.00632">
        <ele>143</ele>
        <time>2020-02-23T11:24:05Z</time>
      </trkpt>
      <trkpt lat="43.56658" lon="0.00659">
        <ele>143</ele>
        <time>2020-02-23T11:24:22Z</time>
      </trkpt>
      <trkpt lat="43.56659" lon="0.00667">
        <ele>143</ele>
        <time>2020-02-23T11:24:27Z</time>
      </trkpt>
      <trkpt lat="43.56666" lon="0.0067">
        <ele>143</ele>
        <time>2020-02-23T11:24:32Z</time>
      </trkpt>
      <trkpt lat="43.56676" lon="0.00678">
        <ele>143</ele>
        <time>2020-02-23T11:24:42Z</time>
      </trkpt>
      <trkpt lat="43.56676" lon="0.00679">
        <ele>143</ele>
        <time>2020-02-23T11:25:12Z</time>
      </trkpt>
      <trkpt lat="43.56672" lon="0.00678">
        <ele>143</ele>
        <time>2020-02-23T11:25:14Z</time>
      </trkpt>
      <trkpt lat="43.56668" lon="0.00675">
        <ele>143</ele>
        <time>2020-02-23T11:25:18Z</time>
      </trkpt>
      <trkpt lat="43.56664" lon="0.0068">
        <ele>143</ele>
        <time>2020-02-23T11:25:23Z</time>
      </trkpt>
      <trkpt lat="43.56664" lon="0.00696">
        <ele>143</ele>
        <time>2020-02-23T11:25:31Z</time>
      </trkpt>
      <trkpt lat="43.56664" lon="0.00712">
        <ele>143</ele>
        <time>2020-02-23T11:25:41Z</time>
      </trkpt>
      <trkpt lat="43.56664" lon="0.00728">
        <ele>143</ele>
        <time>2020-02-23T11:25:53Z</time>
      </trkpt>
      <trkpt lat="43.56666" lon="0.00736">
        <ele>143</ele>
        <time>2020-02-23T11:25:58Z</time>
      </trkpt>
      <trkpt lat="43.56669" lon="0.00776">
        <ele>143</ele>
        <time>2020-02-23T11:26:20Z</time>
      </trkpt>
      <trkpt lat="43.56669" lon="0.00781">
        <ele>143</ele>
        <time>2020-02-23T11:26:23Z</time>
      </trkpt>
      <trkpt lat="43.56665" lon="0.00788">
        <ele>143</ele>
        <time>2020-02-23T11:26:28Z</time>
      </trkpt>
      <trkpt lat="43.56656" lon="0.00795">
        <ele>143</ele>
        <time>2020-02-23T11:26:36Z</time>
      </trkpt>
      <trkpt lat="43.56648" lon="0.00796">
        <ele>143</ele>
        <time>2020-02-23T11:26:43Z</time>
      </trkpt>
      <trkpt lat="43.56644" lon="0.00798">
        <ele>143</ele>
        <time>2020-02-23T11:26:46Z</time>
      </trkpt>
      <trkpt lat="43.56632" lon="0.00806">
        <ele>143</ele>
        <time>2020-02-23T11:26:57Z</time>
      </trkpt>
      <trkpt lat="43.56628" lon="0.00811">
        <ele>143</ele>
        <time>2020-02-23T11:27:02Z</time>
      </trkpt>
      <trkpt lat="43.56624" lon="0.00816">
        <ele>143</ele>
        <time>2020-02-23T11:27:09Z</time>
      </trkpt>
      <trkpt lat="43.56622" lon="0.00824">
        <ele>143</ele>
        <time>2020-02-23T11:27:13Z</time>
      </trkpt>
      <trkpt lat="43.56622" lon="0.0083">
        <ele>143</ele>
        <time>2020-02-23T11:27:16Z</time>
      </trkpt>
      <trkpt lat="43.56624" lon="0.00834">
        <ele>144</ele>
        <time>2020-02-23T11:27:21Z</time>
      </trkpt>
      <trkpt lat="43.56621" lon="0.00838">
        <ele>144</ele>
        <time>2020-02-23T11:27:30Z</time>
      </trkpt>
      <trkpt lat="43.56616" lon="0.00841">
        <ele>144</ele>
        <time>2020-02-23T11:27:38Z</time>
      </trkpt>
      <trkpt lat="43.56616" lon="0.0084">
        <ele>144</ele>
        <time>2020-02-23T11:28:33Z</time>
      </trkpt>
      <trkpt lat="43.56619" lon="0.00838">
        <ele>144</ele>
        <time>2020-02-23T11:28:38Z</time>
      </trkpt>
      <trkpt lat="43.56624" lon="0.00839">
        <ele>144</ele>
        <time>2020-02-23T11:28:44Z</time>
      </trkpt>
      <trkpt lat="43.56628" lon="0.0084">
        <ele>144</ele>
        <time>2020-02-23T11:28:50Z</time>
      </trkpt>
      <trkpt lat="43.56633" lon="0.00841">
        <ele>144</ele>
        <time>2020-02-23T11:28:54Z</time>
      </trkpt>
      <trkpt lat="43.56639" lon="0.00843">
        <ele>144</ele>
        <time>2020-02-23T11:28:59Z</time>
      </trkpt>
      <trkpt lat="43.56641" lon="0.00839">
        <ele>144</ele>
        <time>2020-02-23T11:29:13Z</time>
      </trkpt>
      <trkpt lat="43.56644" lon="0.00836">
        <ele>144</ele>
        <time>2020-02-23T11:29:19Z</time>
      </trkpt>
      <trkpt lat="43.56667" lon="0.00824">
        <ele>144</ele>
        <time>2020-02-23T11:29:43Z</time>
      </trkpt>
      <trkpt lat="43.56673" lon="0.00824">
        <ele>144</ele>
        <time>2020-02-23T11:29:47Z</time>
      </trkpt>
      <trkpt lat="43.56678" lon="0.00829">
        <ele>144</ele>
        <time>2020-02-23T11:29:52Z</time>
      </trkpt>
      <trkpt lat="43.56684" lon="0.00844">
        <ele>145</ele>
        <time>2020-02-23T11:30:00Z</time>
      </trkpt>
      <trkpt lat="43.56685" lon="0.00857">
        <ele>145</ele>
        <time>2020-02-23T11:30:06Z</time>
      </trkpt>
      <trkpt lat="43.56689" lon="0.00867">
        <ele>145</ele>
        <time>2020-02-23T11:30:47Z</time>
      </trkpt>
      <trkpt lat="43.56691" lon="0.00872">
        <ele>145</ele>
        <time>2020-02-23T11:30:51Z</time>
      </trkpt>
      <trkpt lat="43.56691" lon="0.00876">
        <ele>145</ele>
        <time>2020-02-23T11:31:21Z</time>
      </trkpt>
      <trkpt lat="43.56691" lon="0.0088">
        <ele>145</ele>
        <time>2020-02-23T11:31:24Z</time>
      </trkpt>
      <trkpt lat="43.56692" lon="0.00885">
        <ele>145</ele>
        <time>2020-02-23T11:31:27Z</time>
      </trkpt>
      <trkpt lat="43.56693" lon="0.0089">
        <ele>145</ele>
        <time>2020-02-23T11:31:31Z</time>
      </trkpt>
      <trkpt lat="43.56695" lon="0.00902">
        <ele>145</ele>
        <time>2020-02-23T11:31:40Z</time>
      </trkpt>
      <trkpt lat="43.56699" lon="0.00908">
        <ele>146</ele>
        <time>2020-02-23T11:31:46Z</time>
      </trkpt>
      <trkpt lat="43.567" lon="0.00913">
        <ele>146</ele>
        <time>2020-02-23T11:31:51Z</time>
      </trkpt>
      <trkpt lat="43.56697" lon="0.00917">
        <ele>146</ele>
        <time>2020-02-23T11:32:05Z</time>
      </trkpt>
      <trkpt lat="43.56698" lon="0.00922">
        <ele>146</ele>
        <time>2020-02-23T11:32:08Z</time>
      </trkpt>
      <trkpt lat="43.567" lon="0.00933">
        <ele>146</ele>
        <time>2020-02-23T11:32:22Z</time>
      </trkpt>
      <trkpt lat="43.56702" lon="0.00943">
        <ele>146</ele>
        <time>2020-02-23T11:32:31Z</time>
      </trkpt>
      <trkpt lat="43.56704" lon="0.00948">
        <ele>146</ele>
        <time>2020-02-23T11:32:36Z</time>
      </trkpt>
      <trkpt lat="43.56705" lon="0.00953">
        <ele>146</ele>
        <time>2020-02-23T11:32:39Z</time>
      </trkpt>
      <trkpt lat="43.56708" lon="0.00966">
        <ele>147</ele>
        <time>2020-02-23T11:32:48Z</time>
      </trkpt>
      <trkpt lat="43.56714" lon="0.00998">
        <ele>147</ele>
        <time>2020-02-23T11:33:17Z</time>
      </trkpt>
      <trkpt lat="43.56713" lon="0.01012">
        <ele>147</ele>
        <time>2020-02-23T11:33:27Z</time>
      </trkpt>
      <trkpt lat="43.56713" lon="0.0102">
        <ele>147</ele>
        <time>2020-02-23T11:33:33Z</time>
      </trkpt>
      <trkpt lat="43.56716" lon="0.01026">
        <ele>147</ele>
        <time>2020-02-23T11:33:46Z</time>
      </trkpt>
      <trkpt lat="43.56715" lon="0.01031">
        <ele>147</ele>
        <time>2020-02-23T11:34:27Z</time>
      </trkpt>
      <trkpt lat="43.56716" lon="0.01036">
        <ele>147</ele>
        <time>2020-02-23T11:35:58Z</time>
      </trkpt>
      <trkpt lat="43.56718" lon="0.01041">
        <ele>147</ele>
        <time>2020-02-23T11:36:01Z</time>
      </trkpt>
      <trkpt lat="43.5672" lon="0.01045">
        <ele>147</ele>
        <time>2020-02-23T11:36:05Z</time>
      </trkpt>
      <trkpt lat="43.5672" lon="0.01051">
        <ele>148</ele>
        <time>2020-02-23T11:36:15Z</time>
      </trkpt>
      <trkpt lat="43.56722" lon="0.01057">
        <ele>148</ele>
        <time>2020-02-23T11:36:18Z</time>
      </trkpt>
      <trkpt lat="43.56723" lon="0.01062">
        <ele>148</ele>
        <time>2020-02-23T11:36:21Z</time>
      </trkpt>
      <trkpt lat="43.56722" lon="0.01088">
        <ele>148</ele>
        <time>2020-02-23T11:36:43Z</time>
      </trkpt>
      <trkpt lat="43.56723" lon="0.01102">
        <ele>148</ele>
        <time>2020-02-23T11:36:51Z</time>
      </trkpt>
      <trkpt lat="43.56722" lon="0.01112">
        <ele>148</ele>
        <time>2020-02-23T11:36:59Z</time>
      </trkpt>
      <trkpt lat="43.56722" lon="0.01119">
        <ele>148</ele>
        <time>2020-02-23T11:37:03Z</time>
      </trkpt>
      <trkpt lat="43.56722" lon="0.01127">
        <ele>148</ele>
        <time>2020-02-23T11:37:07Z</time>
      </trkpt>
      <trkpt lat="43.56727" lon="0.01178">
        <ele>148</ele>
        <time>2020-02-23T11:37:37Z</time>
      </trkpt>
      <trkpt lat="43.56727" lon="0.01183">
        <ele>148</ele>
        <time>2020-02-23T11:37:42Z</time>
      </trkpt>
      <trkpt lat="43.56729" lon="0.01188">
        <ele>148</ele>
        <time>2020-02-23T11:37:47Z</time>
      </trkpt>
      <trkpt lat="43.56731" lon="0.01193">
        <ele>148</ele>
        <time>2020-02-23T11:37:52Z</time>
      </trkpt>
      <trkpt lat="43.56732" lon="0.01198">
        <ele>148</ele>
        <time>2020-02-23T11:38:11Z</time>
      </trkpt>
      <trkpt lat="43.56733" lon="0.01203">
        <ele>148</ele>
        <time>2020-02-23T11:38:16Z</time>
      </trkpt>
      <trkpt lat="43.56733" lon="0.01208">
        <ele>148</ele>
        <time>2020-02-23T11:38:19Z</time>
      </trkpt>
      <trkpt lat="43.56735" lon="0.0123">
        <ele>149</ele>
        <time>2020-02-23T11:38:31Z</time>
      </trkpt>
      <trkpt lat="43.56737" lon="0.01238">
        <ele>149</ele>
        <time>2020-02-23T11:38:37Z</time>
      </trkpt>
      <trkpt lat="43.5674" lon="0.01261">
        <ele>149</ele>
        <time>2020-02-23T11:38:53Z</time>
      </trkpt>
      <trkpt lat="43.5674" lon="0.01265">
        <ele>149</ele>
        <time>2020-02-23T11:38:56Z</time>
      </trkpt>
      <trkpt lat="43.5674" lon="0.0128">
        <ele>149</ele>
        <time>2020-02-23T11:39:05Z</time>
      </trkpt>
      <trkpt lat="43.56741" lon="0.01287">
        <ele>149</ele>
        <time>2020-02-23T11:39:10Z</time>
      </trkpt>
      <trkpt lat="43.56744" lon="0.013">
        <ele>149</ele>
        <time>2020-02-23T11:39:17Z</time>
      </trkpt>
      <trkpt lat="43.56744" lon="0.0131">
        <ele>149</ele>
        <time>2020-02-23T11:39:29Z</time>
      </trkpt>
      <trkpt lat="43.5675" lon="0.0135">
        <ele>149</ele>
        <time>2020-02-23T11:39:50Z</time>
      </trkpt>
      <trkpt lat="43.56757" lon="0.0139">
        <ele>149</ele>
        <time>2020-02-23T11:40:15Z</time>
      </trkpt>
      <trkpt lat="43.56765" lon="0.0144">
        <ele>150</ele>
        <time>2020-02-23T11:40:47Z</time>
      </trkpt>
      <trkpt lat="43.5677" lon="0.01489">
        <ele>150</ele>
        <time>2020-02-23T11:41:17Z</time>
      </trkpt>
      <trkpt lat="43.5677" lon="0.01492">
        <ele>150</ele>
        <time>2020-02-23T11:41:19Z</time>
      </trkpt>
      <trkpt lat="43.56771" lon="0.01498">
        <ele>150</ele>
        <time>2020-02-23T11:41:23Z</time>
      </trkpt>
      <trkpt lat="43.56771" lon="0.01504">
        <ele>150</ele>
        <time>2020-02-23T11:41:27Z</time>
      </trkpt>
      <trkpt lat="43.56772" lon="0.0151">
        <ele>150</ele>
        <time>2020-02-23T11:41:31Z</time>
      </trkpt>
      <trkpt lat="43.56772" lon="0.01513">
        <ele>150</ele>
        <time>2020-02-23T11:41:33Z</time>
      </trkpt>
      <trkpt lat="43.56773" lon="0.01525">
        <ele>150</ele>
        <time>2020-02-23T11:41:42Z</time>
      </trkpt>
      <trkpt lat="43.56777" lon="0.01532">
        <ele>150</ele>
        <time>2020-02-23T11:41:49Z</time>
      </trkpt>
      <trkpt lat="43.56781" lon="0.01533">
        <ele>150</ele>
        <time>2020-02-23T11:41:54Z</time>
      </trkpt>
      <trkpt lat="43.56783" lon="0.01532">
        <ele>151</ele>
        <time>2020-02-23T11:42:00Z</time>
      </trkpt>
      <trkpt lat="43.56818" lon="0.01516">
        <ele>151</ele>
        <time>2020-02-23T11:42:32Z</time>
      </trkpt>
      <trkpt lat="43.56849" lon="0.01497">
        <ele>150</ele>
        <time>2020-02-23T11:42:57Z</time>
      </trkpt>
      <trkpt lat="43.5686" lon="0.01491">
        <ele>150</ele>
        <time>2020-02-23T11:43:06Z</time>
      </trkpt>
      <trkpt lat="43.56866" lon="0.01488">
        <ele>150</ele>
        <time>2020-02-23T11:43:12Z</time>
      </trkpt>
      <trkpt lat="43.56869" lon="0.01487">
        <ele>150</ele>
        <time>2020-02-23T11:43:29Z</time>
      </trkpt>
      <trkpt lat="43.56872" lon="0.01485">
        <ele>150</ele>
        <time>2020-02-23T11:43:32Z</time>
      </trkpt>
      <trkpt lat="43.56877" lon="0.01481">
        <ele>150</ele>
        <time>2020-02-23T11:43:38Z</time>
      </trkpt>
      <trkpt lat="43.56908" lon="0.01465">
        <ele>149</ele>
        <time>2020-02-23T11:44:08Z</time>
      </trkpt>
      <trkpt lat="43.56924" lon="0.01458">
        <ele>149</ele>
        <time>2020-02-23T11:44:21Z</time>
      </trkpt>
      <trkpt lat="43.56926" lon="0.01457">
        <ele>149</ele>
        <time>2020-02-23T11:44:24Z</time>
      </trkpt>
      <trkpt lat="43.56938" lon="0.01452">
        <ele>149</ele>
        <time>2020-02-23T11:44:33Z</time>
      </trkpt>
      <trkpt lat="43.56942" lon="0.0145">
        <ele>149</ele>
        <time>2020-02-23T11:44:36Z</time>
      </trkpt>
      <trkpt lat="43.56959" lon="0.01444">
        <ele>149</ele>
        <time>2020-02-23T11:44:50Z</time>
      </trkpt>
      <trkpt lat="43.56962" lon="0.01442">
        <ele>149</ele>
        <time>2020-02-23T11:44:52Z</time>
      </trkpt>
      <trkpt lat="43.56978" lon="0.01435">
        <ele>149</ele>
        <time>2020-02-23T11:45:06Z</time>
      </trkpt>
      <trkpt lat="43.56993" lon="0.01435">
        <ele>149</ele>
        <time>2020-02-23T11:45:18Z</time>
      </trkpt>
      <trkpt lat="43.56996" lon="0.01436">
        <ele>148</ele>
        <time>2020-02-23T11:45:21Z</time>
      </trkpt>
      <trkpt lat="43.56998" lon="0.01436">
        <ele>148</ele>
        <time>2020-02-23T11:45:31Z</time>
      </trkpt>
      <trkpt lat="43.57001" lon="0.01438">
        <ele>148</ele>
        <time>2020-02-23T11:45:34Z</time>
      </trkpt>
      <trkpt lat="43.57007" lon="0.01434">
        <ele>148</ele>
        <time>2020-02-23T11:46:08Z</time>
      </trkpt>
      <trkpt lat="43.57015" lon="0.01431">
        <ele>148</ele>
        <time>2020-02-23T11:46:25Z</time>
      </trkpt>
      <trkpt lat="43.57029" lon="0.01425">
        <ele>148</ele>
        <time>2020-02-23T11:46:38Z</time>
      </trkpt>
      <trkpt lat="43.57035" lon="0.01422">
        <ele>148</ele>
        <time>2020-02-23T11:46:44Z</time>
      </trkpt>
      <trkpt lat="43.57048" lon="0.01413">
        <ele>148</ele>
        <time>2020-02-23T11:46:58Z</time>
      </trkpt>
      <trkpt lat="43.5707" lon="0.01397">
        <ele>147</ele>
        <time>2020-02-23T11:47:18Z</time>
      </trkpt>
      <trkpt lat="43.57073" lon="0.01395">
        <ele>147</ele>
        <time>2020-02-23T11:47:21Z</time>
      </trkpt>
      <trkpt lat="43.57109" lon="0.01365">
        <ele>147</ele>
        <time>2020-02-23T11:47:53Z</time>
      </trkpt>
      <trkpt lat="43.5714" lon="0.01337">
        <ele>147</ele>
        <time>2020-02-23T11:48:23Z</time>
      </trkpt>
      <trkpt lat="43.57168" lon="0.01312">
        <ele>146</ele>
        <time>2020-02-23T11:48:50Z</time>
      </trkpt>
      <trkpt lat="43.57196" lon="0.01299">
        <ele>146</ele>
        <time>2020-02-23T11:49:14Z</time>
      </trkpt>
      <trkpt lat="43.5721" lon="0.01293">
        <ele>145</ele>
        <time>2020-02-23T11:49:26Z</time>
      </trkpt>
      <trkpt lat="43.57243" lon="0.01272">
        <ele>145</ele>
        <time>2020-02-23T11:49:56Z</time>
      </trkpt>
      <trkpt lat="43.57267" lon="0.01254">
        <ele>145</ele>
        <time>2020-02-23T11:50:20Z</time>
      </trkpt>
      <trkpt lat="43.573" lon="0.01228">
        <ele>145</ele>
        <time>2020-02-23T11:50:53Z</time>
      </trkpt>
      <trkpt lat="43.57331" lon="0.01203">
        <ele>144</ele>
        <time>2020-02-23T11:51:25Z</time>
      </trkpt>
      <trkpt lat="43.57334" lon="0.012">
        <ele>144</ele>
        <time>2020-02-23T11:51:29Z</time>
      </trkpt>
      <trkpt lat="43.57336" lon="0.01197">
        <ele>144</ele>
        <time>2020-02-23T11:51:32Z</time>
      </trkpt>
      <trkpt lat="43.57337" lon="0.01193">
        <ele>144</ele>
        <time>2020-02-23T11:51:37Z</time>
      </trkpt>
      <trkpt lat="43.57338" lon="0.01191">
        <ele>144</ele>
        <time>2020-02-23T11:51:45Z</time>
      </trkpt>
      <trkpt lat="43.57337" lon="0.01186">
        <ele>144</ele>
        <time>2020-02-23T11:51:49Z</time>
      </trkpt>
      <trkpt lat="43.57334" lon="0.01184">
        <ele>144</ele>
        <time>2020-02-23T11:51:51Z</time>
      </trkpt>
      <trkpt lat="43.57331" lon="0.01184">
        <ele>144</ele>
        <time>2020-02-23T11:51:53Z</time>
      </trkpt>
      <trkpt lat="43.57323" lon="0.0117">
        <ele>144</ele>
        <time>2020-02-23T11:52:04Z</time>
      </trkpt>
      <trkpt lat="43.57314" lon="0.01159">
        <ele>144</ele>
        <time>2020-02-23T11:52:14Z</time>
      </trkpt>
      <trkpt lat="43.57312" lon="0.01156">
        <ele>144</ele>
        <time>2020-02-23T11:52:16Z</time>
      </trkpt>
      <trkpt lat="43.5731" lon="0.01136">
        <ele>144</ele>
        <time>2020-02-23T11:52:26Z</time>
      </trkpt>
      <trkpt lat="43.57308" lon="0.01122">
        <ele>144</ele>
        <time>2020-02-23T11:52:37Z</time>
      </trkpt>
      <trkpt lat="43.57308" lon="0.01114">
        <ele>144</ele>
        <time>2020-02-23T11:52:41Z</time>
      </trkpt>
      <trkpt lat="43.57308" lon="0.01105">
        <ele>144</ele>
        <time>2020-02-23T11:52:47Z</time>
      </trkpt>
      <trkpt lat="43.57307" lon="0.0109">
        <ele>144</ele>
        <time>2020-02-23T11:52:54Z</time>
      </trkpt>
      <trkpt lat="43.57307" lon="0.01085">
        <ele>144</ele>
        <time>2020-02-23T11:52:57Z</time>
      </trkpt>
      <trkpt lat="43.57307" lon="0.0108">
        <ele>144</ele>
        <time>2020-02-23T11:53:00Z</time>
      </trkpt>
      <trkpt lat="43.57307" lon="0.01064">
        <ele>144</ele>
        <time>2020-02-23T11:53:11Z</time>
      </trkpt>
      <trkpt lat="43.57306" lon="0.01036">
        <ele>144</ele>
        <time>2020-02-23T11:53:30Z</time>
      </trkpt>
      <trkpt lat="43.57305" lon="0.01028">
        <ele>144</ele>
        <time>2020-02-23T11:53:35Z</time>
      </trkpt>
      <trkpt lat="43.57303" lon="0.0101">
        <ele>144</ele>
        <time>2020-02-23T11:53:46Z</time>
      </trkpt>
      <trkpt lat="43.57303" lon="0.01005">
        <ele>144</ele>
        <time>2020-02-23T11:53:49Z</time>
      </trkpt>
      <trkpt lat="43.57301" lon="0.00999">
        <ele>144</ele>
        <time>2020-02-23T11:53:52Z</time>
      </trkpt>
      <trkpt lat="43.57302" lon="0.00994">
        <ele>144</ele>
        <time>2020-02-23T11:53:56Z</time>
      </trkpt>
      <trkpt lat="43.57302" lon="0.0097">
        <ele>144</ele>
        <time>2020-02-23T11:54:11Z</time>
      </trkpt>
      <trkpt lat="43.57302" lon="0.00965">
        <ele>144</ele>
        <time>2020-02-23T11:54:13Z</time>
      </trkpt>
      <trkpt lat="43.57305" lon="0.0096">
        <ele>144</ele>
        <time>2020-02-23T11:54:17Z</time>
      </trkpt>
      <trkpt lat="43.57312" lon="0.00958">
        <ele>144</ele>
        <time>2020-02-23T11:54:24Z</time>
      </trkpt>
      <trkpt lat="43.57322" lon="0.00957">
        <ele>144</ele>
        <time>2020-02-23T11:54:33Z</time>
      </trkpt>
      <trkpt lat="43.5733" lon="0.00956">
        <ele>144</ele>
        <time>2020-02-23T11:54:40Z</time>
      </trkpt>
      <trkpt lat="43.57334" lon="0.00957">
        <ele>144</ele>
        <time>2020-02-23T11:54:43Z</time>
      </trkpt>
      <trkpt lat="43.57346" lon="0.00958">
        <ele>144</ele>
        <time>2020-02-23T11:54:54Z</time>
      </trkpt>
      <trkpt lat="43.57363" lon="0.00956">
        <ele>144</ele>
        <time>2020-02-23T11:55:11Z</time>
      </trkpt>
      <trkpt lat="43.5737" lon="0.00956">
        <ele>144</ele>
        <time>2020-02-23T11:55:16Z</time>
      </trkpt>
      <trkpt lat="43.57386" lon="0.00951">
        <ele>144</ele>
        <time>2020-02-23T11:55:27Z</time>
      </trkpt>
      <trkpt lat="43.57399" lon="0.00951">
        <ele>144</ele>
        <time>2020-02-23T11:55:37Z</time>
      </trkpt>
      <trkpt lat="43.57403" lon="0.00951">
        <ele>144</ele>
        <time>2020-02-23T11:55:39Z</time>
      </trkpt>
      <trkpt lat="43.57418" lon="0.00954">
        <ele>144</ele>
        <time>2020-02-23T11:55:54Z</time>
      </trkpt>
      <trkpt lat="43.57427" lon="0.00952">
        <ele>144</ele>
        <time>2020-02-23T11:56:04Z</time>
      </trkpt>
      <trkpt lat="43.5743" lon="0.00951">
        <ele>144</ele>
        <time>2020-02-23T11:56:08Z</time>
      </trkpt>
      <trkpt lat="43.57433" lon="0.00951">
        <ele>144</ele>
        <time>2020-02-23T11:56:11Z</time>
      </trkpt>
      <trkpt lat="43.57443" lon="0.00949">
        <ele>144</ele>
        <time>2020-02-23T11:56:18Z</time>
      </trkpt>
      <trkpt lat="43.57447" lon="0.00949">
        <ele>144</ele>
        <time>2020-02-23T11:56:20Z</time>
      </trkpt>
      <trkpt lat="43.5745" lon="0.00948">
        <ele>144</ele>
        <time>2020-02-23T11:56:25Z</time>
      </trkpt>
      <trkpt lat="43.57454" lon="0.00949">
        <ele>144</ele>
        <time>2020-02-23T11:56:29Z</time>
      </trkpt>
      <trkpt lat="43.57458" lon="0.00949">
        <ele>144</ele>
        <time>2020-02-23T11:56:31Z</time>
      </trkpt>
      <trkpt lat="43.5747" lon="0.00949">
        <ele>143</ele>
        <time>2020-02-23T11:56:37Z</time>
      </trkpt>
      <trkpt lat="43.57501" lon="0.00949">
        <ele>143</ele>
        <time>2020-02-23T11:57:02Z</time>
      </trkpt>
      <trkpt lat="43.57505" lon="0.00949">
        <ele>143</ele>
        <time>2020-02-23T11:57:05Z</time>
      </trkpt>
      <trkpt lat="43.57511" lon="0.00947">
        <ele>143</ele>
        <time>2020-02-23T11:57:10Z</time>
      </trkpt>
      <trkpt lat="43.57514" lon="0.00947">
        <ele>143</ele>
        <time>2020-02-23T11:57:14Z</time>
      </trkpt>
      <trkpt lat="43.57546" lon="0.00948">
        <ele>143</ele>
        <time>2020-02-23T11:57:42Z</time>
      </trkpt>
      <trkpt lat="43.57555" lon="0.00951">
        <ele>143</ele>
        <time>2020-02-23T11:57:54Z</time>
      </trkpt>
      <trkpt lat="43.57573" lon="0.00963">
        <ele>143</ele>
        <time>2020-02-23T11:58:14Z</time>
      </trkpt>
      <trkpt lat="43.57579" lon="0.00965">
        <ele>143</ele>
        <time>2020-02-23T11:58:18Z</time>
      </trkpt>
      <trkpt lat="43.57582" lon="0.00968">
        <ele>143</ele>
        <time>2020-02-23T11:58:30Z</time>
      </trkpt>
      <trkpt lat="43.57585" lon="0.00969">
        <ele>142</ele>
        <time>2020-02-23T11:58:33Z</time>
      </trkpt>
      <trkpt lat="43.57599" lon="0.00975">
        <ele>142</ele>
        <time>2020-02-23T11:58:43Z</time>
      </trkpt>
      <trkpt lat="43.57641" lon="0.00982">
        <ele>142</ele>
        <time>2020-02-23T11:59:15Z</time>
      </trkpt>
      <trkpt lat="43.57651" lon="0.00982">
        <ele>142</ele>
        <time>2020-02-23T11:59:22Z</time>
      </trkpt>
      <trkpt lat="43.57655" lon="0.0098">
        <ele>142</ele>
        <time>2020-02-23T11:59:28Z</time>
      </trkpt>
      <trkpt lat="43.57659" lon="0.00977">
        <ele>142</ele>
        <time>2020-02-23T11:59:32Z</time>
      </trkpt>
      <trkpt lat="43.57663" lon="0.00977">
        <ele>142</ele>
        <time>2020-02-23T11:59:36Z</time>
      </trkpt>
      <trkpt lat="43.57688" lon="0.00967">
        <ele>142</ele>
        <time>2020-02-23T11:59:59Z</time>
      </trkpt>
      <trkpt lat="43.57714" lon="0.00946">
        <ele>142</ele>
        <time>2020-02-23T12:00:23Z</time>
      </trkpt>
      <trkpt lat="43.57721" lon="0.0094">
        <ele>142</ele>
        <time>2020-02-23T12:00:30Z</time>
      </trkpt>
      <trkpt lat="43.57729" lon="0.00932">
        <ele>142</ele>
        <time>2020-02-23T12:00:42Z</time>
      </trkpt>
      <trkpt lat="43.57738" lon="0.00908">
        <ele>142</ele>
        <time>2020-02-23T12:01:04Z</time>
      </trkpt>
      <trkpt lat="43.57744" lon="0.009">
        <ele>142</ele>
        <time>2020-02-23T12:01:10Z</time>
      </trkpt>
      <trkpt lat="43.57759" lon="0.00892">
        <ele>142</ele>
        <time>2020-02-23T12:01:29Z</time>
      </trkpt>
      <trkpt lat="43.57764" lon="0.00892">
        <ele>142</ele>
        <time>2020-02-23T12:01:32Z</time>
      </trkpt>
      <trkpt lat="43.57786" lon="0.00902">
        <ele>142</ele>
        <time>2020-02-23T12:01:50Z</time>
      </trkpt>
      <trkpt lat="43.57791" lon="0.00902">
        <ele>142</ele>
        <time>2020-02-23T12:01:53Z</time>
      </trkpt>
      <trkpt lat="43.57795" lon="0.00903">
        <ele>142</ele>
        <time>2020-02-23T12:01:57Z</time>
      </trkpt>
      <trkpt lat="43.578" lon="0.00905">
        <ele>142</ele>
        <time>2020-02-23T12:02:01Z</time>
      </trkpt>
      <trkpt lat="43.57804" lon="0.00908">
        <ele>141</ele>
        <time>2020-02-23T12:02:04Z</time>
      </trkpt>
      <trkpt lat="43.57808" lon="0.00908">
        <ele>141</ele>
        <time>2020-02-23T12:02:09Z</time>
      </trkpt>
      <trkpt lat="43.57812" lon="0.00907">
        <ele>141</ele>
        <time>2020-02-23T12:02:14Z</time>
      </trkpt>
      <trkpt lat="43.57823" lon="0.00915">
        <ele>141</ele>
        <time>2020-02-23T12:02:25Z</time>
      </trkpt>
      <trkpt lat="43.57835" lon="0.00919">
        <ele>141</ele>
        <time>2020-02-23T12:02:41Z</time>
      </trkpt>
      <trkpt lat="43.57843" lon="0.00924">
        <ele>141</ele>
        <time>2020-02-23T12:02:47Z</time>
      </trkpt>
      <trkpt lat="43.57853" lon="0.00929">
        <ele>141</ele>
        <time>2020-02-23T12:02:57Z</time>
      </trkpt>
      <trkpt lat="43.57858" lon="0.00929">
        <ele>141</ele>
        <time>2020-02-23T12:03:02Z</time>
      </trkpt>
      <trkpt lat="43.57862" lon="0.0093">
        <ele>141</ele>
        <time>2020-02-23T12:03:06Z</time>
      </trkpt>
      <trkpt lat="43.57866" lon="0.0093">
        <ele>141</ele>
        <time>2020-02-23T12:03:08Z</time>
      </trkpt>
      <trkpt lat="43.57871" lon="0.00933">
        <ele>141</ele>
        <time>2020-02-23T12:03:12Z</time>
      </trkpt>
      <trkpt lat="43.57884" lon="0.00931">
        <ele>141</ele>
        <time>2020-02-23T12:03:21Z</time>
      </trkpt>
      <trkpt lat="43.57889" lon="0.0093">
        <ele>141</ele>
        <time>2020-02-23T12:03:26Z</time>
      </trkpt>
      <trkpt lat="43.57893" lon="0.0093">
        <ele>141</ele>
        <time>2020-02-23T12:03:30Z</time>
      </trkpt>
      <trkpt lat="43.5792" lon="0.00919">
        <ele>141</ele>
        <time>2020-02-23T12:03:51Z</time>
      </trkpt>
      <trkpt lat="43.57961" lon="0.00916">
        <ele>141</ele>
        <time>2020-02-23T12:04:25Z</time>
      </trkpt>
      <trkpt lat="43.57995" lon="0.00916">
        <ele>141</ele>
        <time>2020-02-23T12:04:59Z</time>
      </trkpt>
      <trkpt lat="43.58028" lon="0.00914">
        <ele>141</ele>
        <time>2020-02-23T12:05:24Z</time>
      </trkpt>
      <trkpt lat="43.58032" lon="0.00913">
        <ele>141</ele>
        <time>2020-02-23T12:05:28Z</time>
      </trkpt>
      <trkpt lat="43.58065" lon="0.00911">
        <ele>141</ele>
        <time>2020-02-23T12:05:58Z</time>
      </trkpt>
      <trkpt lat="43.58075" lon="0.0091">
        <ele>141</ele>
        <time>2020-02-23T12:06:04Z</time>
      </trkpt>
      <trkpt lat="43.5808" lon="0.00908">
        <ele>141</ele>
        <time>2020-02-23T12:06:09Z</time>
      </trkpt>
      <trkpt lat="43.58086" lon="0.00907">
        <ele>141</ele>
        <time>2020-02-23T12:06:13Z</time>
      </trkpt>
      <trkpt lat="43.58094" lon="0.00908">
        <ele>141</ele>
        <time>2020-02-23T12:06:20Z</time>
      </trkpt>
      <trkpt lat="43.581" lon="0.00906">
        <ele>141</ele>
        <time>2020-02-23T12:06:26Z</time>
      </trkpt>
      <trkpt lat="43.58113" lon="0.00904">
        <ele>141</ele>
        <time>2020-02-23T12:08:04Z</time>
      </trkpt>
      <trkpt lat="43.58117" lon="0.00902">
        <ele>141</ele>
        <time>2020-02-23T12:08:09Z</time>
      </trkpt>
      <trkpt lat="43.58122" lon="0.00902">
        <ele>141</ele>
        <time>2020-02-23T12:08:16Z</time>
      </trkpt>
      <trkpt lat="43.58129" lon="0.00906">
        <ele>141</ele>
        <time>2020-02-23T12:08:28Z</time>
      </trkpt>
      <trkpt lat="43.58153" lon="0.00905">
        <ele>141</ele>
        <time>2020-02-23T12:08:47Z</time>
      </trkpt>
      <trkpt lat="43.58162" lon="0.00911">
        <ele>141</ele>
        <time>2020-02-23T12:08:55Z</time>
      </trkpt>
      <trkpt lat="43.58174" lon="0.0091">
        <ele>141</ele>
        <time>2020-02-23T12:09:10Z</time>
      </trkpt>
      <trkpt lat="43.58184" lon="0.00911">
        <ele>142</ele>
        <time>2020-02-23T12:09:21Z</time>
      </trkpt>
      <trkpt lat="43.58198" lon="0.00911">
        <ele>142</ele>
        <time>2020-02-23T12:09:32Z</time>
      </trkpt>
      <trkpt lat="43.58201" lon="0.00914">
        <ele>142</ele>
        <time>2020-02-23T12:09:42Z</time>
      </trkpt>
      <trkpt lat="43.58206" lon="0.00914">
        <ele>142</ele>
        <time>2020-02-23T12:09:44Z</time>
      </trkpt>
      <trkpt lat="43.5821" lon="0.00915">
        <ele>142</ele>
        <time>2020-02-23T12:09:48Z</time>
      </trkpt>
      <trkpt lat="43.58241" lon="0.0092">
        <ele>142</ele>
        <time>2020-02-23T12:10:13Z</time>
      </trkpt>
      <trkpt lat="43.58245" lon="0.0092">
        <ele>142</ele>
        <time>2020-02-23T12:10:16Z</time>
      </trkpt>
      <trkpt lat="43.58249" lon="0.00921">
        <ele>142</ele>
        <time>2020-02-23T12:10:20Z</time>
      </trkpt>
      <trkpt lat="43.58287" lon="0.00929">
        <ele>142</ele>
        <time>2020-02-23T12:10:52Z</time>
      </trkpt>
      <trkpt lat="43.58321" lon="0.00936">
        <ele>142</ele>
        <time>2020-02-23T12:11:23Z</time>
      </trkpt>
      <trkpt lat="43.58324" lon="0.00937">
        <ele>142</ele>
        <time>2020-02-23T12:11:26Z</time>
      </trkpt>
      <trkpt lat="43.58356" lon="0.00944">
        <ele>142</ele>
        <time>2020-02-23T12:11:55Z</time>
      </trkpt>
      <trkpt lat="43.58359" lon="0.00944">
        <ele>142</ele>
        <time>2020-02-23T12:11:57Z</time>
      </trkpt>
      <trkpt lat="43.58389" lon="0.00952">
        <ele>142</ele>
        <time>2020-02-23T12:12:24Z</time>
      </trkpt>
      <trkpt lat="43.58393" lon="0.00951">
        <ele>142</ele>
        <time>2020-02-23T12:12:27Z</time>
      </trkpt>
      <trkpt lat="43.58429" lon="0.00958">
        <ele>142</ele>
        <time>2020-02-23T12:12:58Z</time>
      </trkpt>
      <trkpt lat="43.58455" lon="0.00968">
        <ele>142</ele>
        <time>2020-02-23T12:13:18Z</time>
      </trkpt>
      <trkpt lat="43.5847" lon="0.00976">
        <ele>142</ele>
        <time>2020-02-23T12:13:32Z</time>
      </trkpt>
      <trkpt lat="43.58502" lon="0.00984">
        <ele>142</ele>
        <time>2020-02-23T12:14:01Z</time>
      </trkpt>
      <trkpt lat="43.58523" lon="0.00987">
        <ele>141</ele>
        <time>2020-02-23T12:14:17Z</time>
      </trkpt>
      <trkpt lat="43.58557" lon="0.0098">
        <ele>141</ele>
        <time>2020-02-23T12:14:48Z</time>
      </trkpt>
      <trkpt lat="43.58597" lon="0.00964">
        <ele>141</ele>
        <time>2020-02-23T12:15:18Z</time>
      </trkpt>
      <trkpt lat="43.58616" lon="0.00955">
        <ele>141</ele>
        <time>2020-02-23T12:15:36Z</time>
      </trkpt>
      <trkpt lat="43.58631" lon="0.00946">
        <ele>141</ele>
        <time>2020-02-23T12:15:52Z</time>
      </trkpt>
      <trkpt lat="43.58654" lon="0.00943">
        <ele>141</ele>
        <time>2020-02-23T12:16:08Z</time>
      </trkpt>
      <trkpt lat="43.5867" lon="0.00936">
        <ele>141</ele>
        <time>2020-02-23T12:16:22Z</time>
      </trkpt>
      <trkpt lat="43.58675" lon="0.00931">
        <ele>141</ele>
        <time>2020-02-23T12:16:37Z</time>
      </trkpt>
      <trkpt lat="43.58688" lon="0.00923">
        <ele>141</ele>
        <time>2020-02-23T12:16:48Z</time>
      </trkpt>
      <trkpt lat="43.58721" lon="0.00892">
        <ele>141</ele>
        <time>2020-02-23T12:17:20Z</time>
      </trkpt>
      <trkpt lat="43.58749" lon="0.0086">
        <ele>141</ele>
        <time>2020-02-23T12:17:52Z</time>
      </trkpt>
      <trkpt lat="43.58773" lon="0.00836">
        <ele>141</ele>
        <time>2020-02-23T12:18:17Z</time>
      </trkpt>
      <trkpt lat="43.58777" lon="0.00832">
        <ele>141</ele>
        <time>2020-02-23T12:18:20Z</time>
      </trkpt>
      <trkpt lat="43.58791" lon="0.0082">
        <ele>141</ele>
        <time>2020-02-23T12:18:33Z</time>
      </trkpt>
      <trkpt lat="43.58795" lon="0.00816">
        <ele>141</ele>
        <time>2020-02-23T12:18:37Z</time>
      </trkpt>
      <trkpt lat="43.58801" lon="0.00811">
        <ele>141</ele>
        <time>2020-02-23T12:18:44Z</time>
      </trkpt>
      <trkpt lat="43.58803" lon="0.00809">
        <ele>141</ele>
        <time>2020-02-23T12:18:47Z</time>
      </trkpt>
      <trkpt lat="43.58809" lon="0.00804">
        <ele>141</ele>
        <time>2020-02-23T12:18:54Z</time>
      </trkpt>
      <trkpt lat="43.5881" lon="0.00801">
        <ele>141</ele>
        <time>2020-02-23T12:19:07Z</time>
      </trkpt>
      <trkpt lat="43.5881" lon="0.00787">
        <ele>141</ele>
        <time>2020-02-23T12:19:24Z</time>
      </trkpt>
      <trkpt lat="43.58805" lon="0.00747">
        <ele>141</ele>
        <time>2020-02-23T12:19:54Z</time>
      </trkpt>
      <trkpt lat="43.58801" lon="0.00721">
        <ele>141</ele>
        <time>2020-02-23T12:20:10Z</time>
      </trkpt>
      <trkpt lat="43.58797" lon="0.00669">
        <ele>142</ele>
        <time>2020-02-23T12:20:41Z</time>
      </trkpt>
      <trkpt lat="43.588" lon="0.00653">
        <ele>142</ele>
        <time>2020-02-23T12:20:53Z</time>
      </trkpt>
      <trkpt lat="43.588" lon="0.00648">
        <ele>142</ele>
        <time>2020-02-23T12:20:57Z</time>
      </trkpt>
      <trkpt lat="43.58803" lon="0.00631">
        <ele>142</ele>
        <time>2020-02-23T12:21:09Z</time>
      </trkpt>
      <trkpt lat="43.58802" lon="0.00622">
        <ele>142</ele>
        <time>2020-02-23T12:21:15Z</time>
      </trkpt>
      <trkpt lat="43.58805" lon="0.00614">
        <ele>142</ele>
        <time>2020-02-23T12:21:20Z</time>
      </trkpt>
      <trkpt lat="43.58804" lon="0.00556">
        <ele>142</ele>
        <time>2020-02-23T12:21:56Z</time>
      </trkpt>
      <trkpt lat="43.58802" lon="0.00549">
        <ele>142</ele>
        <time>2020-02-23T12:22:05Z</time>
      </trkpt>
      <trkpt lat="43.58799" lon="0.00535">
        <ele>142</ele>
        <time>2020-02-23T12:22:12Z</time>
      </trkpt>
      <trkpt lat="43.588" lon="0.00529">
        <ele>142</ele>
        <time>2020-02-23T12:22:33Z</time>
      </trkpt>
      <trkpt lat="43.588" lon="0.00523">
        <ele>142</ele>
        <time>2020-02-23T12:22:36Z</time>
      </trkpt>
      <trkpt lat="43.58801" lon="0.00518">
        <ele>142</ele>
        <time>2020-02-23T12:22:38Z</time>
      </trkpt>
      <trkpt lat="43.58804" lon="0.00514">
        <ele>142</ele>
        <time>2020-02-23T12:22:41Z</time>
      </trkpt>
      <trkpt lat="43.58809" lon="0.00511">
        <ele>142</ele>
        <time>2020-02-23T12:22:47Z</time>
      </trkpt>
      <trkpt lat="43.58813" lon="0.00498">
        <ele>142</ele>
        <time>2020-02-23T12:22:52Z</time>
      </trkpt>
      <trkpt lat="43.5882" lon="0.00493">
        <ele>142</ele>
        <time>2020-02-23T12:22:58Z</time>
      </trkpt>
      <trkpt lat="43.58823" lon="0.00491">
        <ele>142</ele>
        <time>2020-02-23T12:23:02Z</time>
      </trkpt>
      <trkpt lat="43.58832" lon="0.00485">
        <ele>142</ele>
        <time>2020-02-23T12:23:12Z</time>
      </trkpt>
      <trkpt lat="43.58845" lon="0.00483">
        <ele>142</ele>
        <time>2020-02-23T12:23:23Z</time>
      </trkpt>
      <trkpt lat="43.58857" lon="0.00475">
        <ele>142</ele>
        <time>2020-02-23T12:23:43Z</time>
      </trkpt>
      <trkpt lat="43.5886" lon="0.00472">
        <ele>142</ele>
        <time>2020-02-23T12:23:50Z</time>
      </trkpt>
      <trkpt lat="43.58872" lon="0.00459">
        <ele>142</ele>
        <time>2020-02-23T12:24:06Z</time>
      </trkpt>
      <trkpt lat="43.58874" lon="0.00455">
        <ele>142</ele>
        <time>2020-02-23T12:24:09Z</time>
      </trkpt>
      <trkpt lat="43.58878" lon="0.00452">
        <ele>142</ele>
        <time>2020-02-23T12:24:13Z</time>
      </trkpt>
      <trkpt lat="43.58884" lon="0.00447">
        <ele>142</ele>
        <time>2020-02-23T12:24:29Z</time>
      </trkpt>
      <trkpt lat="43.58885" lon="0.00442">
        <ele>142</ele>
        <time>2020-02-23T12:24:38Z</time>
      </trkpt>
      <trkpt lat="43.58891" lon="0.00432">
        <ele>142</ele>
        <time>2020-02-23T12:25:10Z</time>
      </trkpt>
      <trkpt lat="43.58894" lon="0.00417">
        <ele>142</ele>
        <time>2020-02-23T12:25:32Z</time>
      </trkpt>
      <trkpt lat="43.58896" lon="0.00412">
        <ele>142</ele>
        <time>2020-02-23T12:25:35Z</time>
      </trkpt>
      <trkpt lat="43.58897" lon="0.00407">
        <ele>142</ele>
        <time>2020-02-23T12:25:38Z</time>
      </trkpt>
      <trkpt lat="43.58899" lon="0.00402">
        <ele>142</ele>
        <time>2020-02-23T12:25:42Z</time>
      </trkpt>
      <trkpt lat="43.58899" lon="0.00396">
        <ele>142</ele>
        <time>2020-02-23T12:25:47Z</time>
      </trkpt>
      <trkpt lat="43.589" lon="0.00388">
        <ele>142</ele>
        <time>2020-02-23T12:25:53Z</time>
      </trkpt>
      <trkpt lat="43.58898" lon="0.00383">
        <ele>143</ele>
        <time>2020-02-23T12:26:22Z</time>
      </trkpt>
      <trkpt lat="43.58898" lon="0.00378">
        <ele>143</ele>
        <time>2020-02-23T12:26:26Z</time>
      </trkpt>
      <trkpt lat="43.58898" lon="0.00365">
        <ele>143</ele>
        <time>2020-02-23T12:26:37Z</time>
      </trkpt>
      <trkpt lat="43.58902" lon="0.00358">
        <ele>143</ele>
        <time>2020-02-23T12:26:41Z</time>
      </trkpt>
      <trkpt lat="43.58902" lon="0.00353">
        <ele>143</ele>
        <time>2020-02-23T12:26:45Z</time>
      </trkpt>
      <trkpt lat="43.58901" lon="0.0035">
        <ele>143</ele>
        <time>2020-02-23T12:27:20Z</time>
      </trkpt>
      <trkpt lat="43.58898" lon="0.00345">
        <ele>143</ele>
        <time>2020-02-23T12:27:32Z</time>
      </trkpt>
      <trkpt lat="43.58895" lon="0.00342">
        <ele>143</ele>
        <time>2020-02-23T12:27:38Z</time>
      </trkpt>
      <trkpt lat="43.5889" lon="0.00338">
        <ele>143</ele>
        <time>2020-02-23T12:27:45Z</time>
      </trkpt>
      <trkpt lat="43.58887" lon="0.00331">
        <ele>143</ele>
        <time>2020-02-23T12:27:55Z</time>
      </trkpt>
      <trkpt lat="43.58881" lon="0.00312">
        <ele>143</ele>
        <time>2020-02-23T12:28:09Z</time>
      </trkpt>
      <trkpt lat="43.58878" lon="0.00303">
        <ele>143</ele>
        <time>2020-02-23T12:28:11Z</time>
      </trkpt>
      <trkpt lat="43.58874" lon="0.00297">
        <ele>143</ele>
        <time>2020-02-23T12:28:17Z</time>
      </trkpt>
      <trkpt lat="43.58872" lon="0.00289">
        <ele>143</ele>
        <time>2020-02-23T12:28:23Z</time>
      </trkpt>
      <trkpt lat="43.58865" lon="0.00266">
        <ele>143</ele>
        <time>2020-02-23T12:28:36Z</time>
      </trkpt>
      <trkpt lat="43.58866" lon="0.00259">
        <ele>143</ele>
        <time>2020-02-23T12:28:49Z</time>
      </trkpt>
      <trkpt lat="43.58865" lon="0.00252">
        <ele>143</ele>
        <time>2020-02-23T12:28:58Z</time>
      </trkpt>
      <trkpt lat="43.58862" lon="0.00245">
        <ele>143</ele>
        <time>2020-02-23T12:29:06Z</time>
      </trkpt>
      <trkpt lat="43.58862" lon="0.00238">
        <ele>143</ele>
        <time>2020-02-23T12:29:12Z</time>
      </trkpt>
      <trkpt lat="43.5886" lon="0.00234">
        <ele>143</ele>
        <time>2020-02-23T12:29:35Z</time>
      </trkpt>
      <trkpt lat="43.58861" lon="0.00229">
        <ele>143</ele>
        <time>2020-02-23T12:29:47Z</time>
      </trkpt>
      <trkpt lat="43.58849" lon="0.00204">
        <ele>143</ele>
        <time>2020-02-23T12:30:22Z</time>
      </trkpt>
      <trkpt lat="43.58847" lon="0.00194">
        <ele>143</ele>
        <time>2020-02-23T12:30:36Z</time>
      </trkpt>
      <trkpt lat="43.58842" lon="0.00184">
        <ele>143</ele>
        <time>2020-02-23T12:30:41Z</time>
      </trkpt>
      <trkpt lat="43.58837" lon="0.00178">
        <ele>143</ele>
        <time>2020-02-23T12:30:45Z</time>
      </trkpt>
      <trkpt lat="43.58832" lon="0.00169">
        <ele>142</ele>
        <time>2020-02-23T12:30:49Z</time>
      </trkpt>
      <trkpt lat="43.58833" lon="0.00159">
        <ele>142</ele>
        <time>2020-02-23T12:30:57Z</time>
      </trkpt>
      <trkpt lat="43.58837" lon="0.00148">
        <ele>142</ele>
        <time>2020-02-23T12:31:05Z</time>
      </trkpt>
      <trkpt lat="43.58838" lon="0.00137">
        <ele>142</ele>
        <time>2020-02-23T12:31:11Z</time>
      </trkpt>
      <trkpt lat="43.5883" lon="0.00133">
        <ele>142</ele>
        <time>2020-02-23T12:31:15Z</time>
      </trkpt>
      <trkpt lat="43.58806" lon="0.00118">
        <ele>142</ele>
        <time>2020-02-23T12:31:26Z</time>
      </trkpt>
      <trkpt lat="43.5876" lon="0.001">
        <ele>142</ele>
        <time>2020-02-23T12:31:58Z</time>
      </trkpt>
      <trkpt lat="43.58723" lon="0.00096">
        <ele>142</ele>
        <time>2020-02-23T12:32:23Z</time>
      </trkpt>
      <trkpt lat="43.58718" lon="0.00096">
        <ele>142</ele>
        <time>2020-02-23T12:32:26Z</time>
      </trkpt>
      <trkpt lat="43.5868" lon="0.00099">
        <ele>142</ele>
        <time>2020-02-23T12:32:59Z</time>
      </trkpt>
      <trkpt lat="43.58667" lon="0.00096">
        <ele>142</ele>
        <time>2020-02-23T12:33:09Z</time>
      </trkpt>
      <trkpt lat="43.58664" lon="0.00093">
        <ele>142</ele>
        <time>2020-02-23T12:33:14Z</time>
      </trkpt>
      <trkpt lat="43.58639" lon="0.00084">
        <ele>142</ele>
        <time>2020-02-23T12:33:38Z</time>
      </trkpt>
      <trkpt lat="43.58635" lon="0.00082">
        <ele>142</ele>
        <time>2020-02-23T12:33:42Z</time>
      </trkpt>
      <trkpt lat="43.58623" lon="0.00076">
        <ele>142</ele>
        <time>2020-02-23T12:33:53Z</time>
      </trkpt>
      <trkpt lat="43.5861" lon="0.00077">
        <ele>142</ele>
        <time>2020-02-23T12:34:07Z</time>
      </trkpt>
      <trkpt lat="43.586" lon="0.00073">
        <ele>142</ele>
        <time>2020-02-23T12:34:18Z</time>
      </trkpt>
      <trkpt lat="43.58595" lon="0.00069">
        <ele>142</ele>
        <time>2020-02-23T12:34:22Z</time>
      </trkpt>
      <trkpt lat="43.58592" lon="0.00062">
        <ele>142</ele>
        <time>2020-02-23T12:34:26Z</time>
      </trkpt>
      <trkpt lat="43.58589" lon="0.00058">
        <ele>142</ele>
        <time>2020-02-23T12:34:31Z</time>
      </trkpt>
      <trkpt lat="43.58572" lon="0.00034">
        <ele>142</ele>
        <time>2020-02-23T12:34:50Z</time>
      </trkpt>
      <trkpt lat="43.58569" lon="0.00032">
        <ele>142</ele>
        <time>2020-02-23T12:34:54Z</time>
      </trkpt>
      <trkpt lat="43.58562" lon="0.0004">
        <ele>142</ele>
        <time>2020-02-23T12:35:03Z</time>
      </trkpt>
      <trkpt lat="43.58558" lon="0.0005">
        <ele>141</ele>
        <time>2020-02-23T12:35:09Z</time>
      </trkpt>
      <trkpt lat="43.58554" lon="0.00057">
        <ele>141</ele>
        <time>2020-02-23T12:35:15Z</time>
      </trkpt>
      <trkpt lat="43.58549" lon="0.00061">
        <ele>141</ele>
        <time>2020-02-23T12:35:21Z</time>
      </trkpt>
      <trkpt lat="43.58537" lon="0.00064">
        <ele>141</ele>
        <time>2020-02-23T12:35:34Z</time>
      </trkpt>
      <trkpt lat="43.58501" lon="0.00052">
        <ele>142</ele>
        <time>2020-02-23T12:36:04Z</time>
      </trkpt>
      <trkpt lat="43.5849" lon="0.00045">
        <ele>142</ele>
        <time>2020-02-23T12:36:16Z</time>
      </trkpt>
      <trkpt lat="43.58487" lon="0.00042">
        <ele>142</ele>
        <time>2020-02-23T12:36:19Z</time>
      </trkpt>
      <trkpt lat="43.58482" lon="0.0004">
        <ele>142</ele>
        <time>2020-02-23T12:36:24Z</time>
      </trkpt>
      <trkpt lat="43.58477" lon="0.00039">
        <ele>142</ele>
        <time>2020-02-23T12:36:27Z</time>
      </trkpt>
      <trkpt lat="43.58473" lon="0.00037">
        <ele>142</ele>
        <time>2020-02-23T12:36:30Z</time>
      </trkpt>
      <trkpt lat="43.58456" lon="0.00019">
        <ele>142</ele>
        <time>2020-02-23T12:36:47Z</time>
      </trkpt>
      <trkpt lat="43.58453" lon="0.00017">
        <ele>142</ele>
        <time>2020-02-23T12:36:50Z</time>
      </trkpt>
      <trkpt lat="43.58438" lon="0.00012">
        <ele>142</ele>
        <time>2020-02-23T12:37:03Z</time>
      </trkpt>
      <trkpt lat="43.58432" lon="0.00012">
        <ele>142</ele>
        <time>2020-02-23T12:37:08Z</time>
      </trkpt>
      <trkpt lat="43.58414" lon="3.0E-5">
        <ele>143</ele>
        <time>2020-02-23T12:37:24Z</time>
      </trkpt>
      <trkpt lat="43.58408" lon="-1.0E-5">
        <ele>143</ele>
        <time>2020-02-23T12:37:30Z</time>
      </trkpt>
      <trkpt lat="43.58403" lon="-6.0E-5">
        <ele>143</ele>
        <time>2020-02-23T12:37:36Z</time>
      </trkpt>
      <trkpt lat="43.584" lon="-8.0E-5">
        <ele>143</ele>
        <time>2020-02-23T12:37:39Z</time>
      </trkpt>
      <trkpt lat="43.58395" lon="-0.00012">
        <ele>143</ele>
        <time>2020-02-23T12:37:49Z</time>
      </trkpt>
      <trkpt lat="43.5839" lon="-0.00018">
        <ele>143</ele>
        <time>2020-02-23T12:37:55Z</time>
      </trkpt>
      <trkpt lat="43.58384" lon="-0.00022">
        <ele>143</ele>
        <time>2020-02-23T12:38:01Z</time>
      </trkpt>
      <trkpt lat="43.58379" lon="-0.00024">
        <ele>143</ele>
        <time>2020-02-23T12:38:07Z</time>
      </trkpt>
      <trkpt lat="43.58376" lon="-0.00025">
        <ele>143</ele>
        <time>2020-02-23T12:38:10Z</time>
      </trkpt>
      <trkpt lat="43.58373" lon="-0.00027">
        <ele>143</ele>
        <time>2020-02-23T12:38:13Z</time>
      </trkpt>
      <trkpt lat="43.5837" lon="-0.00029">
        <ele>143</ele>
        <time>2020-02-23T12:38:16Z</time>
      </trkpt>
      <trkpt lat="43.58368" lon="-0.00031">
        <ele>143</ele>
        <time>2020-02-23T12:38:19Z</time>
      </trkpt>
      <trkpt lat="43.58355" lon="-0.00033">
        <ele>143</ele>
        <time>2020-02-23T12:38:29Z</time>
      </trkpt>
      <trkpt lat="43.58318" lon="-0.00048">
        <ele>144</ele>
        <time>2020-02-23T12:39:00Z</time>
      </trkpt>
      <trkpt lat="43.58293" lon="-0.00051">
        <ele>144</ele>
        <time>2020-02-23T12:39:21Z</time>
      </trkpt>
      <trkpt lat="43.58282" lon="-0.00047">
        <ele>144</ele>
        <time>2020-02-23T12:39:32Z</time>
      </trkpt>
      <trkpt lat="43.58278" lon="-0.00045">
        <ele>144</ele>
        <time>2020-02-23T12:39:36Z</time>
      </trkpt>
      <trkpt lat="43.58267" lon="-0.0004">
        <ele>145</ele>
        <time>2020-02-23T12:39:44Z</time>
      </trkpt>
      <trkpt lat="43.58264" lon="-0.00037">
        <ele>145</ele>
        <time>2020-02-23T12:39:47Z</time>
      </trkpt>
      <trkpt lat="43.58261" lon="-0.00035">
        <ele>145</ele>
        <time>2020-02-23T12:39:50Z</time>
      </trkpt>
      <trkpt lat="43.58258" lon="-0.00032">
        <ele>145</ele>
        <time>2020-02-23T12:39:53Z</time>
      </trkpt>
      <trkpt lat="43.58253" lon="-0.00027">
        <ele>145</ele>
        <time>2020-02-23T12:39:58Z</time>
      </trkpt>
      <trkpt lat="43.5825" lon="-0.00024">
        <ele>145</ele>
        <time>2020-02-23T12:40:01Z</time>
      </trkpt>
      <trkpt lat="43.58248" lon="-0.00021">
        <ele>145</ele>
        <time>2020-02-23T12:40:05Z</time>
      </trkpt>
      <trkpt lat="43.58245" lon="-0.00021">
        <ele>145</ele>
        <time>2020-02-23T12:40:08Z</time>
      </trkpt>
      <trkpt lat="43.58239" lon="-0.00024">
        <ele>145</ele>
        <time>2020-02-23T12:40:13Z</time>
      </trkpt>
      <trkpt lat="43.58237" lon="-0.00027">
        <ele>145</ele>
        <time>2020-02-23T12:40:16Z</time>
      </trkpt>
      <trkpt lat="43.58235" lon="-0.00034">
        <ele>145</ele>
        <time>2020-02-23T12:40:20Z</time>
      </trkpt>
    </trkseg>
  </trk>
</gpx>